<?xml version="1.0" encoding="UTF-8" standalone="no" ?>
<gpx xmlns="http://www.topografix.com/GPX/1/1" xmlns:xsi="http://www.w3.org/2001/XMLSchema-instance" xsi:schemaLocation="http://www.topografix.com/GPX/1/1 http://www.topografix.com/GPX/1/1/gpx.xsd" version="1.1" creator="VisuGPX - https://www.visugpx.com">
  <metadata>
    <name>Trace Barry</name>
    <desc><![CDATA[Sortie du jeudi 26 janvier 2012 effectuée par 16 randonneurs du SCLapalud]]></desc>
  </metadata>
  <trk>
    <name><![CDATA[ACTIVE LOG 001]]></name>
    <trkseg>
      <trkpt lat="44.30859" lon="4.77802">
        <ele>84.252686</ele>
        <time>2012-01-26T13:26:44Z</time>
      </trkpt>
      <trkpt lat="44.30862" lon="4.77798">
        <ele>85.213989</ele>
        <time>2012-01-26T13:27:55Z</time>
      </trkpt>
      <trkpt lat="44.30863" lon="4.77797">
        <ele>85.213989</ele>
        <time>2012-01-26T13:28:27Z</time>
      </trkpt>
      <trkpt lat="44.30864" lon="4.77799">
        <ele>85.213989</ele>
        <time>2012-01-26T13:28:44Z</time>
      </trkpt>
      <trkpt lat="44.30866" lon="4.77799">
        <ele>85.213989</ele>
        <time>2012-01-26T13:29:15Z</time>
      </trkpt>
      <trkpt lat="44.30866" lon="4.77798">
        <ele>85.213989</ele>
        <time>2012-01-26T13:29:25Z</time>
      </trkpt>
      <trkpt lat="44.30865" lon="4.77797">
        <ele>84.733398</ele>
        <time>2012-01-26T13:29:46Z</time>
      </trkpt>
      <trkpt lat="44.30865" lon="4.77797">
        <ele>84.733398</ele>
        <time>2012-01-26T13:29:55Z</time>
      </trkpt>
      <trkpt lat="44.30864" lon="4.77792">
        <ele>84.733398</ele>
        <time>2012-01-26T13:30:02Z</time>
      </trkpt>
      <trkpt lat="44.30853" lon="4.7778">
        <ele>84.252686</ele>
        <time>2012-01-26T13:30:18Z</time>
      </trkpt>
      <trkpt lat="44.30851" lon="4.77781">
        <ele>84.252686</ele>
        <time>2012-01-26T13:30:23Z</time>
      </trkpt>
      <trkpt lat="44.30847" lon="4.77782">
        <ele>84.733398</ele>
        <time>2012-01-26T13:30:26Z</time>
      </trkpt>
      <trkpt lat="44.30844" lon="4.77785">
        <ele>84.733398</ele>
        <time>2012-01-26T13:30:31Z</time>
      </trkpt>
      <trkpt lat="44.30833" lon="4.77788">
        <ele>84.252686</ele>
        <time>2012-01-26T13:30:41Z</time>
      </trkpt>
      <trkpt lat="44.30825" lon="4.7779">
        <ele>83.771973</ele>
        <time>2012-01-26T13:30:53Z</time>
      </trkpt>
      <trkpt lat="44.30821" lon="4.77794">
        <ele>83.291382</ele>
        <time>2012-01-26T13:30:59Z</time>
      </trkpt>
      <trkpt lat="44.30819" lon="4.77795">
        <ele>83.291382</ele>
        <time>2012-01-26T13:31:03Z</time>
      </trkpt>
      <trkpt lat="44.30804" lon="4.778">
        <ele>81.849365</ele>
        <time>2012-01-26T13:31:15Z</time>
      </trkpt>
      <trkpt lat="44.30795" lon="4.778">
        <ele>81.849365</ele>
        <time>2012-01-26T13:31:27Z</time>
      </trkpt>
      <trkpt lat="44.30796" lon="4.77799">
        <ele>81.368774</ele>
        <time>2012-01-26T13:31:36Z</time>
      </trkpt>
      <trkpt lat="44.30794" lon="4.77795">
        <ele>81.368774</ele>
        <time>2012-01-26T13:31:43Z</time>
      </trkpt>
      <trkpt lat="44.30791" lon="4.77786">
        <ele>81.368774</ele>
        <time>2012-01-26T13:31:50Z</time>
      </trkpt>
      <trkpt lat="44.30789" lon="4.7778">
        <ele>81.368774</ele>
        <time>2012-01-26T13:31:55Z</time>
      </trkpt>
      <trkpt lat="44.30788" lon="4.77777">
        <ele>81.368774</ele>
        <time>2012-01-26T13:31:57Z</time>
      </trkpt>
      <trkpt lat="44.30785" lon="4.77772">
        <ele>81.849365</ele>
        <time>2012-01-26T13:32:02Z</time>
      </trkpt>
      <trkpt lat="44.30782" lon="4.77762">
        <ele>81.368774</ele>
        <time>2012-01-26T13:32:11Z</time>
      </trkpt>
      <trkpt lat="44.30778" lon="4.77748">
        <ele>80.888184</ele>
        <time>2012-01-26T13:32:20Z</time>
      </trkpt>
      <trkpt lat="44.30774" lon="4.77736">
        <ele>80.888184</ele>
        <time>2012-01-26T13:32:28Z</time>
      </trkpt>
      <trkpt lat="44.30772" lon="4.77726">
        <ele>81.368774</ele>
        <time>2012-01-26T13:32:37Z</time>
      </trkpt>
      <trkpt lat="44.30774" lon="4.7771">
        <ele>81.368774</ele>
        <time>2012-01-26T13:32:47Z</time>
      </trkpt>
      <trkpt lat="44.30774" lon="4.77705">
        <ele>81.368774</ele>
        <time>2012-01-26T13:32:50Z</time>
      </trkpt>
      <trkpt lat="44.30774" lon="4.77701">
        <ele>81.368774</ele>
        <time>2012-01-26T13:32:53Z</time>
      </trkpt>
      <trkpt lat="44.30774" lon="4.77673">
        <ele>80.888184</ele>
        <time>2012-01-26T13:33:12Z</time>
      </trkpt>
      <trkpt lat="44.30767" lon="4.77649">
        <ele>81.368774</ele>
        <time>2012-01-26T13:33:26Z</time>
      </trkpt>
      <trkpt lat="44.30768" lon="4.77639">
        <ele>81.368774</ele>
        <time>2012-01-26T13:33:33Z</time>
      </trkpt>
      <trkpt lat="44.30771" lon="4.77623">
        <ele>80.888184</ele>
        <time>2012-01-26T13:33:45Z</time>
      </trkpt>
      <trkpt lat="44.30774" lon="4.77606">
        <ele>80.407471</ele>
        <time>2012-01-26T13:33:55Z</time>
      </trkpt>
      <trkpt lat="44.30772" lon="4.77597">
        <ele>80.407471</ele>
        <time>2012-01-26T13:34:00Z</time>
      </trkpt>
      <trkpt lat="44.30769" lon="4.77576">
        <ele>80.407471</ele>
        <time>2012-01-26T13:34:13Z</time>
      </trkpt>
      <trkpt lat="44.30772" lon="4.77544">
        <ele>80.888184</ele>
        <time>2012-01-26T13:34:29Z</time>
      </trkpt>
      <trkpt lat="44.3077" lon="4.77506">
        <ele>80.407471</ele>
        <time>2012-01-26T13:34:52Z</time>
      </trkpt>
      <trkpt lat="44.30769" lon="4.77493">
        <ele>80.407471</ele>
        <time>2012-01-26T13:35:02Z</time>
      </trkpt>
      <trkpt lat="44.30768" lon="4.77487">
        <ele>80.407471</ele>
        <time>2012-01-26T13:35:06Z</time>
      </trkpt>
      <trkpt lat="44.30768" lon="4.77483">
        <ele>80.407471</ele>
        <time>2012-01-26T13:35:09Z</time>
      </trkpt>
      <trkpt lat="44.30768" lon="4.77476">
        <ele>80.407471</ele>
        <time>2012-01-26T13:35:13Z</time>
      </trkpt>
      <trkpt lat="44.30767" lon="4.77465">
        <ele>80.407471</ele>
        <time>2012-01-26T13:35:21Z</time>
      </trkpt>
      <trkpt lat="44.30763" lon="4.77458">
        <ele>79.926636</ele>
        <time>2012-01-26T13:35:26Z</time>
      </trkpt>
      <trkpt lat="44.30762" lon="4.77453">
        <ele>79.926636</ele>
        <time>2012-01-26T13:35:30Z</time>
      </trkpt>
      <trkpt lat="44.30761" lon="4.77432">
        <ele>79.926636</ele>
        <time>2012-01-26T13:35:44Z</time>
      </trkpt>
      <trkpt lat="44.30761" lon="4.77428">
        <ele>79.926636</ele>
        <time>2012-01-26T13:35:46Z</time>
      </trkpt>
      <trkpt lat="44.30753" lon="4.77405">
        <ele>79.446045</ele>
        <time>2012-01-26T13:35:58Z</time>
      </trkpt>
      <trkpt lat="44.30749" lon="4.77392">
        <ele>79.446045</ele>
        <time>2012-01-26T13:36:06Z</time>
      </trkpt>
      <trkpt lat="44.30747" lon="4.77375">
        <ele>79.926636</ele>
        <time>2012-01-26T13:36:21Z</time>
      </trkpt>
      <trkpt lat="44.30744" lon="4.77347">
        <ele>79.926636</ele>
        <time>2012-01-26T13:36:39Z</time>
      </trkpt>
      <trkpt lat="44.30738" lon="4.77325">
        <ele>79.926636</ele>
        <time>2012-01-26T13:36:55Z</time>
      </trkpt>
      <trkpt lat="44.30731" lon="4.77312">
        <ele>80.407471</ele>
        <time>2012-01-26T13:37:07Z</time>
      </trkpt>
      <trkpt lat="44.3073" lon="4.77304">
        <ele>80.407471</ele>
        <time>2012-01-26T13:37:14Z</time>
      </trkpt>
      <trkpt lat="44.30726" lon="4.77298">
        <ele>79.926636</ele>
        <time>2012-01-26T13:37:17Z</time>
      </trkpt>
      <trkpt lat="44.30722" lon="4.77289">
        <ele>79.926636</ele>
        <time>2012-01-26T13:37:27Z</time>
      </trkpt>
      <trkpt lat="44.30717" lon="4.7727">
        <ele>79.926636</ele>
        <time>2012-01-26T13:37:41Z</time>
      </trkpt>
      <trkpt lat="44.30704" lon="4.77226">
        <ele>79.926636</ele>
        <time>2012-01-26T13:37:59Z</time>
      </trkpt>
      <trkpt lat="44.30702" lon="4.77219">
        <ele>79.446045</ele>
        <time>2012-01-26T13:38:03Z</time>
      </trkpt>
      <trkpt lat="44.30699" lon="4.77205">
        <ele>78.965454</ele>
        <time>2012-01-26T13:38:14Z</time>
      </trkpt>
      <trkpt lat="44.30692" lon="4.77186">
        <ele>79.446045</ele>
        <time>2012-01-26T13:38:33Z</time>
      </trkpt>
      <trkpt lat="44.30688" lon="4.77168">
        <ele>79.926636</ele>
        <time>2012-01-26T13:38:50Z</time>
      </trkpt>
      <trkpt lat="44.30684" lon="4.77131">
        <ele>80.888184</ele>
        <time>2012-01-26T13:39:12Z</time>
      </trkpt>
      <trkpt lat="44.30677" lon="4.77108">
        <ele>80.888184</ele>
        <time>2012-01-26T13:39:28Z</time>
      </trkpt>
      <trkpt lat="44.30671" lon="4.77087">
        <ele>80.888184</ele>
        <time>2012-01-26T13:39:42Z</time>
      </trkpt>
      <trkpt lat="44.30671" lon="4.77084">
        <ele>80.888184</ele>
        <time>2012-01-26T13:39:44Z</time>
      </trkpt>
      <trkpt lat="44.3066" lon="4.77056">
        <ele>81.368774</ele>
        <time>2012-01-26T13:40:03Z</time>
      </trkpt>
      <trkpt lat="44.30658" lon="4.77051">
        <ele>80.407471</ele>
        <time>2012-01-26T13:40:06Z</time>
      </trkpt>
      <trkpt lat="44.30654" lon="4.77049">
        <ele>80.888184</ele>
        <time>2012-01-26T13:40:09Z</time>
      </trkpt>
      <trkpt lat="44.30653" lon="4.7704">
        <ele>81.368774</ele>
        <time>2012-01-26T13:40:16Z</time>
      </trkpt>
      <trkpt lat="44.30648" lon="4.77032">
        <ele>80.888184</ele>
        <time>2012-01-26T13:40:24Z</time>
      </trkpt>
      <trkpt lat="44.30644" lon="4.77016">
        <ele>81.368774</ele>
        <time>2012-01-26T13:40:37Z</time>
      </trkpt>
      <trkpt lat="44.30639" lon="4.76991">
        <ele>82.330078</ele>
        <time>2012-01-26T13:40:51Z</time>
      </trkpt>
      <trkpt lat="44.30634" lon="4.76975">
        <ele>81.849365</ele>
        <time>2012-01-26T13:41:03Z</time>
      </trkpt>
      <trkpt lat="44.30634" lon="4.76959">
        <ele>82.330078</ele>
        <time>2012-01-26T13:41:13Z</time>
      </trkpt>
      <trkpt lat="44.3063" lon="4.7692">
        <ele>82.810791</ele>
        <time>2012-01-26T13:41:39Z</time>
      </trkpt>
      <trkpt lat="44.3062" lon="4.76886">
        <ele>82.810791</ele>
        <time>2012-01-26T13:42:00Z</time>
      </trkpt>
      <trkpt lat="44.30619" lon="4.76883">
        <ele>82.810791</ele>
        <time>2012-01-26T13:42:02Z</time>
      </trkpt>
      <trkpt lat="44.30615" lon="4.76874">
        <ele>83.771973</ele>
        <time>2012-01-26T13:42:10Z</time>
      </trkpt>
      <trkpt lat="44.30615" lon="4.7687">
        <ele>83.291382</ele>
        <time>2012-01-26T13:42:13Z</time>
      </trkpt>
      <trkpt lat="44.30611" lon="4.76855">
        <ele>83.291382</ele>
        <time>2012-01-26T13:42:24Z</time>
      </trkpt>
      <trkpt lat="44.3061" lon="4.76843">
        <ele>83.771973</ele>
        <time>2012-01-26T13:42:32Z</time>
      </trkpt>
      <trkpt lat="44.30608" lon="4.76836">
        <ele>83.291382</ele>
        <time>2012-01-26T13:42:36Z</time>
      </trkpt>
      <trkpt lat="44.30606" lon="4.76824">
        <ele>83.291382</ele>
        <time>2012-01-26T13:42:41Z</time>
      </trkpt>
      <trkpt lat="44.30601" lon="4.76811">
        <ele>82.330078</ele>
        <time>2012-01-26T13:42:54Z</time>
      </trkpt>
      <trkpt lat="44.30601" lon="4.7681">
        <ele>82.810791</ele>
        <time>2012-01-26T13:42:57Z</time>
      </trkpt>
      <trkpt lat="44.30593" lon="4.76794">
        <ele>81.849365</ele>
        <time>2012-01-26T13:43:07Z</time>
      </trkpt>
      <trkpt lat="44.30584" lon="4.7677">
        <ele>81.368774</ele>
        <time>2012-01-26T13:43:25Z</time>
      </trkpt>
      <trkpt lat="44.3058" lon="4.76758">
        <ele>80.888184</ele>
        <time>2012-01-26T13:43:36Z</time>
      </trkpt>
      <trkpt lat="44.30568" lon="4.76735">
        <ele>80.407471</ele>
        <time>2012-01-26T13:43:53Z</time>
      </trkpt>
      <trkpt lat="44.30567" lon="4.76733">
        <ele>80.407471</ele>
        <time>2012-01-26T13:43:54Z</time>
      </trkpt>
      <trkpt lat="44.30566" lon="4.76727">
        <ele>79.926636</ele>
        <time>2012-01-26T13:44:00Z</time>
      </trkpt>
      <trkpt lat="44.3056" lon="4.76715">
        <ele>79.446045</ele>
        <time>2012-01-26T13:44:09Z</time>
      </trkpt>
      <trkpt lat="44.30551" lon="4.76686">
        <ele>78.965454</ele>
        <time>2012-01-26T13:44:27Z</time>
      </trkpt>
      <trkpt lat="44.30546" lon="4.76657">
        <ele>78.965454</ele>
        <time>2012-01-26T13:44:42Z</time>
      </trkpt>
      <trkpt lat="44.30545" lon="4.76654">
        <ele>78.965454</ele>
        <time>2012-01-26T13:44:45Z</time>
      </trkpt>
      <trkpt lat="44.30539" lon="4.76627">
        <ele>78.484741</ele>
        <time>2012-01-26T13:45:03Z</time>
      </trkpt>
      <trkpt lat="44.30537" lon="4.76618">
        <ele>78.004028</ele>
        <time>2012-01-26T13:45:08Z</time>
      </trkpt>
      <trkpt lat="44.30537" lon="4.76616">
        <ele>77.523438</ele>
        <time>2012-01-26T13:45:10Z</time>
      </trkpt>
      <trkpt lat="44.30535" lon="4.76612">
        <ele>78.484741</ele>
        <time>2012-01-26T13:45:13Z</time>
      </trkpt>
      <trkpt lat="44.30531" lon="4.76595">
        <ele>78.484741</ele>
        <time>2012-01-26T13:45:23Z</time>
      </trkpt>
      <trkpt lat="44.30532" lon="4.76585">
        <ele>77.523438</ele>
        <time>2012-01-26T13:45:30Z</time>
      </trkpt>
      <trkpt lat="44.30528" lon="4.76568">
        <ele>77.523438</ele>
        <time>2012-01-26T13:45:39Z</time>
      </trkpt>
      <trkpt lat="44.30527" lon="4.76563">
        <ele>78.004028</ele>
        <time>2012-01-26T13:45:42Z</time>
      </trkpt>
      <trkpt lat="44.3052" lon="4.76547">
        <ele>78.004028</ele>
        <time>2012-01-26T13:45:51Z</time>
      </trkpt>
      <trkpt lat="44.30513" lon="4.76529">
        <ele>77.523438</ele>
        <time>2012-01-26T13:46:00Z</time>
      </trkpt>
      <trkpt lat="44.30513" lon="4.76524">
        <ele>77.523438</ele>
        <time>2012-01-26T13:46:03Z</time>
      </trkpt>
      <trkpt lat="44.30509" lon="4.76512">
        <ele>77.523438</ele>
        <time>2012-01-26T13:46:17Z</time>
      </trkpt>
      <trkpt lat="44.30505" lon="4.76498">
        <ele>78.484741</ele>
        <time>2012-01-26T13:46:31Z</time>
      </trkpt>
      <trkpt lat="44.30494" lon="4.76475">
        <ele>78.004028</ele>
        <time>2012-01-26T13:46:44Z</time>
      </trkpt>
      <trkpt lat="44.30489" lon="4.76457">
        <ele>78.484741</ele>
        <time>2012-01-26T13:46:53Z</time>
      </trkpt>
      <trkpt lat="44.30489" lon="4.76456">
        <ele>78.484741</ele>
        <time>2012-01-26T13:46:55Z</time>
      </trkpt>
      <trkpt lat="44.30488" lon="4.76449">
        <ele>78.004028</ele>
        <time>2012-01-26T13:47:05Z</time>
      </trkpt>
      <trkpt lat="44.30485" lon="4.76444">
        <ele>78.004028</ele>
        <time>2012-01-26T13:47:08Z</time>
      </trkpt>
      <trkpt lat="44.30482" lon="4.7644">
        <ele>78.004028</ele>
        <time>2012-01-26T13:47:12Z</time>
      </trkpt>
      <trkpt lat="44.30482" lon="4.7643">
        <ele>78.484741</ele>
        <time>2012-01-26T13:47:15Z</time>
      </trkpt>
      <trkpt lat="44.30471" lon="4.76404">
        <ele>77.523438</ele>
        <time>2012-01-26T13:47:28Z</time>
      </trkpt>
      <trkpt lat="44.30464" lon="4.76385">
        <ele>78.004028</ele>
        <time>2012-01-26T13:47:42Z</time>
      </trkpt>
      <trkpt lat="44.30462" lon="4.76381">
        <ele>78.004028</ele>
        <time>2012-01-26T13:47:45Z</time>
      </trkpt>
      <trkpt lat="44.30458" lon="4.76371">
        <ele>77.523438</ele>
        <time>2012-01-26T13:47:52Z</time>
      </trkpt>
      <trkpt lat="44.30446" lon="4.76354">
        <ele>76.081421</ele>
        <time>2012-01-26T13:48:02Z</time>
      </trkpt>
      <trkpt lat="44.30444" lon="4.76344">
        <ele>76.081421</ele>
        <time>2012-01-26T13:48:10Z</time>
      </trkpt>
      <trkpt lat="44.30438" lon="4.76321">
        <ele>75.60083</ele>
        <time>2012-01-26T13:48:22Z</time>
      </trkpt>
      <trkpt lat="44.30435" lon="4.76312">
        <ele>74.639526</ele>
        <time>2012-01-26T13:48:29Z</time>
      </trkpt>
      <trkpt lat="44.30433" lon="4.76304">
        <ele>75.120239</ele>
        <time>2012-01-26T13:48:33Z</time>
      </trkpt>
      <trkpt lat="44.30429" lon="4.76285">
        <ele>75.120239</ele>
        <time>2012-01-26T13:48:45Z</time>
      </trkpt>
      <trkpt lat="44.3043" lon="4.76287">
        <ele>75.120239</ele>
        <time>2012-01-26T13:48:57Z</time>
      </trkpt>
      <trkpt lat="44.30432" lon="4.76286">
        <ele>75.120239</ele>
        <time>2012-01-26T13:49:30Z</time>
      </trkpt>
      <trkpt lat="44.30434" lon="4.76284">
        <ele>75.60083</ele>
        <time>2012-01-26T13:49:33Z</time>
      </trkpt>
      <trkpt lat="44.30435" lon="4.76284">
        <ele>76.081421</ele>
        <time>2012-01-26T13:49:35Z</time>
      </trkpt>
      <trkpt lat="44.30441" lon="4.76278">
        <ele>77.042847</ele>
        <time>2012-01-26T13:49:41Z</time>
      </trkpt>
      <trkpt lat="44.30463" lon="4.76272">
        <ele>79.926636</ele>
        <time>2012-01-26T13:50:04Z</time>
      </trkpt>
      <trkpt lat="44.30487" lon="4.76261">
        <ele>82.810791</ele>
        <time>2012-01-26T13:50:29Z</time>
      </trkpt>
      <trkpt lat="44.30493" lon="4.76258">
        <ele>84.252686</ele>
        <time>2012-01-26T13:50:36Z</time>
      </trkpt>
      <trkpt lat="44.30495" lon="4.76256">
        <ele>84.733398</ele>
        <time>2012-01-26T13:50:39Z</time>
      </trkpt>
      <trkpt lat="44.30503" lon="4.76248">
        <ele>86.656006</ele>
        <time>2012-01-26T13:50:51Z</time>
      </trkpt>
      <trkpt lat="44.30513" lon="4.76245">
        <ele>88.098022</ele>
        <time>2012-01-26T13:51:00Z</time>
      </trkpt>
      <trkpt lat="44.30518" lon="4.76241">
        <ele>88.578735</ele>
        <time>2012-01-26T13:51:06Z</time>
      </trkpt>
      <trkpt lat="44.30518" lon="4.76232">
        <ele>90.02063</ele>
        <time>2012-01-26T13:51:15Z</time>
      </trkpt>
      <trkpt lat="44.30517" lon="4.76217">
        <ele>91.462524</ele>
        <time>2012-01-26T13:51:28Z</time>
      </trkpt>
      <trkpt lat="44.30517" lon="4.76216">
        <ele>91.462524</ele>
        <time>2012-01-26T13:51:29Z</time>
      </trkpt>
      <trkpt lat="44.30518" lon="4.76206">
        <ele>92.42395</ele>
        <time>2012-01-26T13:51:36Z</time>
      </trkpt>
      <trkpt lat="44.30522" lon="4.76198">
        <ele>93.385132</ele>
        <time>2012-01-26T13:51:42Z</time>
      </trkpt>
      <trkpt lat="44.30525" lon="4.76192">
        <ele>93.865845</ele>
        <time>2012-01-26T13:51:48Z</time>
      </trkpt>
      <trkpt lat="44.30528" lon="4.7619">
        <ele>94.346558</ele>
        <time>2012-01-26T13:52:00Z</time>
      </trkpt>
      <trkpt lat="44.30532" lon="4.76193">
        <ele>94.827148</ele>
        <time>2012-01-26T13:52:05Z</time>
      </trkpt>
      <trkpt lat="44.30536" lon="4.76192">
        <ele>95.307739</ele>
        <time>2012-01-26T13:52:08Z</time>
      </trkpt>
      <trkpt lat="44.30546" lon="4.76195">
        <ele>96.749878</ele>
        <time>2012-01-26T13:52:22Z</time>
      </trkpt>
      <trkpt lat="44.30547" lon="4.76194">
        <ele>96.749878</ele>
        <time>2012-01-26T13:52:23Z</time>
      </trkpt>
      <trkpt lat="44.30551" lon="4.76193">
        <ele>97.711182</ele>
        <time>2012-01-26T13:52:28Z</time>
      </trkpt>
      <trkpt lat="44.30559" lon="4.7619">
        <ele>99.153076</ele>
        <time>2012-01-26T13:52:38Z</time>
      </trkpt>
      <trkpt lat="44.30565" lon="4.76188">
        <ele>100.595093</ele>
        <time>2012-01-26T13:52:49Z</time>
      </trkpt>
      <trkpt lat="44.30572" lon="4.76188">
        <ele>101.075684</ele>
        <time>2012-01-26T13:52:56Z</time>
      </trkpt>
      <trkpt lat="44.30588" lon="4.76188">
        <ele>102.998291</ele>
        <time>2012-01-26T13:53:12Z</time>
      </trkpt>
      <trkpt lat="44.30595" lon="4.76185">
        <ele>103.959717</ele>
        <time>2012-01-26T13:53:30Z</time>
      </trkpt>
      <trkpt lat="44.30593" lon="4.76186">
        <ele>103.479004</ele>
        <time>2012-01-26T13:53:50Z</time>
      </trkpt>
      <trkpt lat="44.30595" lon="4.7619">
        <ele>103.479004</ele>
        <time>2012-01-26T13:54:08Z</time>
      </trkpt>
      <trkpt lat="44.30597" lon="4.76191">
        <ele>103.959717</ele>
        <time>2012-01-26T13:54:09Z</time>
      </trkpt>
      <trkpt lat="44.30604" lon="4.76207">
        <ele>103.959717</ele>
        <time>2012-01-26T13:54:23Z</time>
      </trkpt>
      <trkpt lat="44.30606" lon="4.76222">
        <ele>103.479004</ele>
        <time>2012-01-26T13:54:36Z</time>
      </trkpt>
      <trkpt lat="44.30608" lon="4.76241">
        <ele>102.998291</ele>
        <time>2012-01-26T13:54:51Z</time>
      </trkpt>
      <trkpt lat="44.30612" lon="4.76266">
        <ele>101.556396</ele>
        <time>2012-01-26T13:55:07Z</time>
      </trkpt>
      <trkpt lat="44.30612" lon="4.76283">
        <ele>100.595093</ele>
        <time>2012-01-26T13:55:20Z</time>
      </trkpt>
      <trkpt lat="44.30618" lon="4.763">
        <ele>100.595093</ele>
        <time>2012-01-26T13:55:34Z</time>
      </trkpt>
      <trkpt lat="44.30618" lon="4.76303">
        <ele>100.595093</ele>
        <time>2012-01-26T13:55:39Z</time>
      </trkpt>
      <trkpt lat="44.30626" lon="4.7631">
        <ele>101.556396</ele>
        <time>2012-01-26T13:55:49Z</time>
      </trkpt>
      <trkpt lat="44.30636" lon="4.76308">
        <ele>102.037109</ele>
        <time>2012-01-26T13:56:02Z</time>
      </trkpt>
      <trkpt lat="44.30647" lon="4.76307">
        <ele>102.998291</ele>
        <time>2012-01-26T13:56:13Z</time>
      </trkpt>
      <trkpt lat="44.30654" lon="4.7631">
        <ele>103.479004</ele>
        <time>2012-01-26T13:56:28Z</time>
      </trkpt>
      <trkpt lat="44.30661" lon="4.76309">
        <ele>104.44043</ele>
        <time>2012-01-26T13:56:47Z</time>
      </trkpt>
      <trkpt lat="44.3067" lon="4.7631">
        <ele>105.882446</ele>
        <time>2012-01-26T13:57:02Z</time>
      </trkpt>
      <trkpt lat="44.30681" lon="4.76313">
        <ele>107.805054</ele>
        <time>2012-01-26T13:57:16Z</time>
      </trkpt>
      <trkpt lat="44.30692" lon="4.76319">
        <ele>109.727661</ele>
        <time>2012-01-26T13:57:31Z</time>
      </trkpt>
      <trkpt lat="44.30695" lon="4.76319">
        <ele>109.727661</ele>
        <time>2012-01-26T13:57:33Z</time>
      </trkpt>
      <trkpt lat="44.30704" lon="4.76318">
        <ele>111.169556</ele>
        <time>2012-01-26T13:57:46Z</time>
      </trkpt>
      <trkpt lat="44.30711" lon="4.76321">
        <ele>112.611572</ele>
        <time>2012-01-26T13:58:01Z</time>
      </trkpt>
      <trkpt lat="44.30716" lon="4.76315">
        <ele>114.53418</ele>
        <time>2012-01-26T13:58:13Z</time>
      </trkpt>
      <trkpt lat="44.30731" lon="4.76313">
        <ele>115.495605</ele>
        <time>2012-01-26T13:58:30Z</time>
      </trkpt>
      <trkpt lat="44.30732" lon="4.76312">
        <ele>115.495605</ele>
        <time>2012-01-26T13:58:31Z</time>
      </trkpt>
      <trkpt lat="44.30736" lon="4.76307">
        <ele>116.456787</ele>
        <time>2012-01-26T13:58:34Z</time>
      </trkpt>
      <trkpt lat="44.30749" lon="4.76308">
        <ele>117.418213</ele>
        <time>2012-01-26T13:58:44Z</time>
      </trkpt>
      <trkpt lat="44.30759" lon="4.76311">
        <ele>119.34082</ele>
        <time>2012-01-26T13:58:58Z</time>
      </trkpt>
      <trkpt lat="44.30767" lon="4.76309">
        <ele>120.302124</ele>
        <time>2012-01-26T13:59:09Z</time>
      </trkpt>
      <trkpt lat="44.3077" lon="4.76304">
        <ele>121.26355</ele>
        <time>2012-01-26T13:59:16Z</time>
      </trkpt>
      <trkpt lat="44.30775" lon="4.76303">
        <ele>121.744141</ele>
        <time>2012-01-26T13:59:23Z</time>
      </trkpt>
      <trkpt lat="44.30782" lon="4.76292">
        <ele>122.705444</ele>
        <time>2012-01-26T13:59:35Z</time>
      </trkpt>
      <trkpt lat="44.30795" lon="4.76287">
        <ele>123.666748</ele>
        <time>2012-01-26T13:59:47Z</time>
      </trkpt>
      <trkpt lat="44.30807" lon="4.76287">
        <ele>125.108765</ele>
        <time>2012-01-26T14:00:01Z</time>
      </trkpt>
      <trkpt lat="44.30808" lon="4.7629">
        <ele>125.108765</ele>
        <time>2012-01-26T14:00:04Z</time>
      </trkpt>
      <trkpt lat="44.3081" lon="4.76292">
        <ele>125.108765</ele>
        <time>2012-01-26T14:00:06Z</time>
      </trkpt>
      <trkpt lat="44.3082" lon="4.76291">
        <ele>126.550659</ele>
        <time>2012-01-26T14:00:17Z</time>
      </trkpt>
      <trkpt lat="44.30827" lon="4.76289">
        <ele>127.031372</ele>
        <time>2012-01-26T14:00:28Z</time>
      </trkpt>
      <trkpt lat="44.30832" lon="4.76283">
        <ele>128.473389</ele>
        <time>2012-01-26T14:00:39Z</time>
      </trkpt>
      <trkpt lat="44.30841" lon="4.76275">
        <ele>129.915283</ele>
        <time>2012-01-26T14:00:54Z</time>
      </trkpt>
      <trkpt lat="44.30851" lon="4.7627">
        <ele>132.318604</ele>
        <time>2012-01-26T14:01:05Z</time>
      </trkpt>
      <trkpt lat="44.30857" lon="4.76275">
        <ele>133.279907</ele>
        <time>2012-01-26T14:01:17Z</time>
      </trkpt>
      <trkpt lat="44.30863" lon="4.76272">
        <ele>134.721924</ele>
        <time>2012-01-26T14:01:29Z</time>
      </trkpt>
      <trkpt lat="44.30863" lon="4.76272">
        <ele>134.241211</ele>
        <time>2012-01-26T14:02:20Z</time>
      </trkpt>
      <trkpt lat="44.30867" lon="4.76273">
        <ele>133.760498</ele>
        <time>2012-01-26T14:03:34Z</time>
      </trkpt>
      <trkpt lat="44.30867" lon="4.76274">
        <ele>133.760498</ele>
        <time>2012-01-26T14:03:58Z</time>
      </trkpt>
      <trkpt lat="44.30864" lon="4.76273">
        <ele>133.760498</ele>
        <time>2012-01-26T14:04:15Z</time>
      </trkpt>
      <trkpt lat="44.30866" lon="4.76274">
        <ele>134.241211</ele>
        <time>2012-01-26T14:04:45Z</time>
      </trkpt>
      <trkpt lat="44.30873" lon="4.76271">
        <ele>136.644653</ele>
        <time>2012-01-26T14:05:09Z</time>
      </trkpt>
      <trkpt lat="44.30881" lon="4.76259">
        <ele>139.047852</ele>
        <time>2012-01-26T14:05:26Z</time>
      </trkpt>
      <trkpt lat="44.30882" lon="4.76247">
        <ele>140.489868</ele>
        <time>2012-01-26T14:05:38Z</time>
      </trkpt>
      <trkpt lat="44.30889" lon="4.76241">
        <ele>142.412476</ele>
        <time>2012-01-26T14:05:50Z</time>
      </trkpt>
      <trkpt lat="44.30892" lon="4.76237">
        <ele>144.335205</ele>
        <time>2012-01-26T14:06:02Z</time>
      </trkpt>
      <trkpt lat="44.30906" lon="4.76232">
        <ele>146.738403</ele>
        <time>2012-01-26T14:06:22Z</time>
      </trkpt>
      <trkpt lat="44.30915" lon="4.76227">
        <ele>148.18042</ele>
        <time>2012-01-26T14:06:37Z</time>
      </trkpt>
      <trkpt lat="44.30913" lon="4.76223">
        <ele>149.622314</ele>
        <time>2012-01-26T14:06:53Z</time>
      </trkpt>
      <trkpt lat="44.30914" lon="4.76221">
        <ele>149.141602</ele>
        <time>2012-01-26T14:07:06Z</time>
      </trkpt>
      <trkpt lat="44.30916" lon="4.76224">
        <ele>150.103027</ele>
        <time>2012-01-26T14:07:29Z</time>
      </trkpt>
      <trkpt lat="44.30915" lon="4.76221">
        <ele>150.103027</ele>
        <time>2012-01-26T14:07:40Z</time>
      </trkpt>
      <trkpt lat="44.30927" lon="4.76215">
        <ele>152.986938</ele>
        <time>2012-01-26T14:08:01Z</time>
      </trkpt>
      <trkpt lat="44.30937" lon="4.76216">
        <ele>154.909546</ele>
        <time>2012-01-26T14:08:17Z</time>
      </trkpt>
      <trkpt lat="44.30942" lon="4.76211">
        <ele>156.351563</ele>
        <time>2012-01-26T14:08:29Z</time>
      </trkpt>
      <trkpt lat="44.30944" lon="4.76192">
        <ele>157.793579</ele>
        <time>2012-01-26T14:08:47Z</time>
      </trkpt>
      <trkpt lat="44.30951" lon="4.76184">
        <ele>158.754761</ele>
        <time>2012-01-26T14:09:05Z</time>
      </trkpt>
      <trkpt lat="44.30958" lon="4.76174">
        <ele>160.196899</ele>
        <time>2012-01-26T14:09:21Z</time>
      </trkpt>
      <trkpt lat="44.30966" lon="4.76162">
        <ele>161.158203</ele>
        <time>2012-01-26T14:09:34Z</time>
      </trkpt>
      <trkpt lat="44.30976" lon="4.76149">
        <ele>163.080811</ele>
        <time>2012-01-26T14:09:52Z</time>
      </trkpt>
      <trkpt lat="44.30987" lon="4.76143">
        <ele>163.561523</ele>
        <time>2012-01-26T14:10:08Z</time>
      </trkpt>
      <trkpt lat="44.30997" lon="4.76131">
        <ele>165.003418</ele>
        <time>2012-01-26T14:10:26Z</time>
      </trkpt>
      <trkpt lat="44.31006" lon="4.7613">
        <ele>165.964722</ele>
        <time>2012-01-26T14:10:39Z</time>
      </trkpt>
      <trkpt lat="44.31013" lon="4.76128">
        <ele>166.445313</ele>
        <time>2012-01-26T14:10:50Z</time>
      </trkpt>
      <trkpt lat="44.31019" lon="4.76127">
        <ele>166.445313</ele>
        <time>2012-01-26T14:10:55Z</time>
      </trkpt>
      <trkpt lat="44.31027" lon="4.76121">
        <ele>167.406738</ele>
        <time>2012-01-26T14:11:06Z</time>
      </trkpt>
      <trkpt lat="44.31039" lon="4.76116">
        <ele>168.848755</ele>
        <time>2012-01-26T14:11:23Z</time>
      </trkpt>
      <trkpt lat="44.31043" lon="4.76116">
        <ele>169.810059</ele>
        <time>2012-01-26T14:11:28Z</time>
      </trkpt>
      <trkpt lat="44.31051" lon="4.76111">
        <ele>169.329468</ele>
        <time>2012-01-26T14:11:41Z</time>
      </trkpt>
      <trkpt lat="44.31063" lon="4.76108">
        <ele>170.290649</ele>
        <time>2012-01-26T14:11:59Z</time>
      </trkpt>
      <trkpt lat="44.31075" lon="4.76106">
        <ele>171.252075</ele>
        <time>2012-01-26T14:12:11Z</time>
      </trkpt>
      <trkpt lat="44.31088" lon="4.76108">
        <ele>172.69397</ele>
        <time>2012-01-26T14:12:29Z</time>
      </trkpt>
      <trkpt lat="44.31096" lon="4.76108">
        <ele>173.174683</ele>
        <time>2012-01-26T14:12:38Z</time>
      </trkpt>
      <trkpt lat="44.31108" lon="4.76098">
        <ele>173.655273</ele>
        <time>2012-01-26T14:12:55Z</time>
      </trkpt>
      <trkpt lat="44.31109" lon="4.76097">
        <ele>173.655273</ele>
        <time>2012-01-26T14:12:56Z</time>
      </trkpt>
      <trkpt lat="44.31117" lon="4.76087">
        <ele>174.135864</ele>
        <time>2012-01-26T14:13:09Z</time>
      </trkpt>
      <trkpt lat="44.31126" lon="4.76084">
        <ele>175.09729</ele>
        <time>2012-01-26T14:13:23Z</time>
      </trkpt>
      <trkpt lat="44.31141" lon="4.76088">
        <ele>177.981201</ele>
        <time>2012-01-26T14:13:38Z</time>
      </trkpt>
      <trkpt lat="44.31142" lon="4.76089">
        <ele>177.50061</ele>
        <time>2012-01-26T14:13:53Z</time>
      </trkpt>
      <trkpt lat="44.3114" lon="4.76092">
        <ele>177.981201</ele>
        <time>2012-01-26T14:16:27Z</time>
      </trkpt>
      <trkpt lat="44.31142" lon="4.76095">
        <ele>177.981201</ele>
        <time>2012-01-26T14:17:16Z</time>
      </trkpt>
      <trkpt lat="44.31144" lon="4.76097">
        <ele>178.461914</ele>
        <time>2012-01-26T14:17:36Z</time>
      </trkpt>
      <trkpt lat="44.3114" lon="4.76095">
        <ele>177.50061</ele>
        <time>2012-01-26T14:17:52Z</time>
      </trkpt>
      <trkpt lat="44.31133" lon="4.76102">
        <ele>177.50061</ele>
        <time>2012-01-26T14:18:02Z</time>
      </trkpt>
      <trkpt lat="44.31123" lon="4.76114">
        <ele>177.02002</ele>
        <time>2012-01-26T14:18:16Z</time>
      </trkpt>
      <trkpt lat="44.31122" lon="4.76116">
        <ele>177.02002</ele>
        <time>2012-01-26T14:18:18Z</time>
      </trkpt>
      <trkpt lat="44.31113" lon="4.76123">
        <ele>176.539307</ele>
        <time>2012-01-26T14:18:28Z</time>
      </trkpt>
      <trkpt lat="44.31107" lon="4.76134">
        <ele>176.058594</ele>
        <time>2012-01-26T14:18:39Z</time>
      </trkpt>
      <trkpt lat="44.31106" lon="4.76139">
        <ele>175.577881</ele>
        <time>2012-01-26T14:18:43Z</time>
      </trkpt>
      <trkpt lat="44.31105" lon="4.76146">
        <ele>176.058594</ele>
        <time>2012-01-26T14:18:48Z</time>
      </trkpt>
      <trkpt lat="44.31107" lon="4.76169">
        <ele>175.09729</ele>
        <time>2012-01-26T14:19:05Z</time>
      </trkpt>
      <trkpt lat="44.31108" lon="4.76171">
        <ele>175.577881</ele>
        <time>2012-01-26T14:19:06Z</time>
      </trkpt>
      <trkpt lat="44.31115" lon="4.76182">
        <ele>175.577881</ele>
        <time>2012-01-26T14:19:17Z</time>
      </trkpt>
      <trkpt lat="44.31116" lon="4.76185">
        <ele>175.577881</ele>
        <time>2012-01-26T14:19:19Z</time>
      </trkpt>
      <trkpt lat="44.31124" lon="4.76195">
        <ele>175.577881</ele>
        <time>2012-01-26T14:19:29Z</time>
      </trkpt>
      <trkpt lat="44.31124" lon="4.76199">
        <ele>175.577881</ele>
        <time>2012-01-26T14:19:32Z</time>
      </trkpt>
      <trkpt lat="44.31131" lon="4.76209">
        <ele>175.577881</ele>
        <time>2012-01-26T14:19:42Z</time>
      </trkpt>
      <trkpt lat="44.31132" lon="4.7621">
        <ele>175.577881</ele>
        <time>2012-01-26T14:19:43Z</time>
      </trkpt>
      <trkpt lat="44.31134" lon="4.76214">
        <ele>176.058594</ele>
        <time>2012-01-26T14:19:47Z</time>
      </trkpt>
      <trkpt lat="44.31137" lon="4.76218">
        <ele>175.577881</ele>
        <time>2012-01-26T14:19:51Z</time>
      </trkpt>
      <trkpt lat="44.31141" lon="4.76227">
        <ele>175.577881</ele>
        <time>2012-01-26T14:19:57Z</time>
      </trkpt>
      <trkpt lat="44.31144" lon="4.76231">
        <ele>175.577881</ele>
        <time>2012-01-26T14:20:01Z</time>
      </trkpt>
      <trkpt lat="44.31155" lon="4.76239">
        <ele>175.09729</ele>
        <time>2012-01-26T14:20:13Z</time>
      </trkpt>
      <trkpt lat="44.3116" lon="4.76253">
        <ele>174.616577</ele>
        <time>2012-01-26T14:20:26Z</time>
      </trkpt>
      <trkpt lat="44.31164" lon="4.76258">
        <ele>174.616577</ele>
        <time>2012-01-26T14:20:32Z</time>
      </trkpt>
      <trkpt lat="44.31169" lon="4.76273">
        <ele>174.135864</ele>
        <time>2012-01-26T14:20:44Z</time>
      </trkpt>
      <trkpt lat="44.31176" lon="4.76286">
        <ele>173.655273</ele>
        <time>2012-01-26T14:20:56Z</time>
      </trkpt>
      <trkpt lat="44.31183" lon="4.76304">
        <ele>173.174683</ele>
        <time>2012-01-26T14:21:11Z</time>
      </trkpt>
      <trkpt lat="44.31184" lon="4.76305">
        <ele>173.174683</ele>
        <time>2012-01-26T14:21:12Z</time>
      </trkpt>
      <trkpt lat="44.31187" lon="4.76313">
        <ele>173.174683</ele>
        <time>2012-01-26T14:21:17Z</time>
      </trkpt>
      <trkpt lat="44.31193" lon="4.76321">
        <ele>173.174683</ele>
        <time>2012-01-26T14:21:23Z</time>
      </trkpt>
      <trkpt lat="44.31197" lon="4.76327">
        <ele>172.69397</ele>
        <time>2012-01-26T14:21:29Z</time>
      </trkpt>
      <trkpt lat="44.31204" lon="4.7634">
        <ele>172.213257</ele>
        <time>2012-01-26T14:21:37Z</time>
      </trkpt>
      <trkpt lat="44.31212" lon="4.7635">
        <ele>171.252075</ele>
        <time>2012-01-26T14:21:49Z</time>
      </trkpt>
      <trkpt lat="44.31218" lon="4.76358">
        <ele>171.252075</ele>
        <time>2012-01-26T14:21:58Z</time>
      </trkpt>
      <trkpt lat="44.31221" lon="4.76361">
        <ele>170.771362</ele>
        <time>2012-01-26T14:22:01Z</time>
      </trkpt>
      <trkpt lat="44.31223" lon="4.76363">
        <ele>170.771362</ele>
        <time>2012-01-26T14:22:04Z</time>
      </trkpt>
      <trkpt lat="44.31227" lon="4.7637">
        <ele>170.290649</ele>
        <time>2012-01-26T14:22:10Z</time>
      </trkpt>
      <trkpt lat="44.31235" lon="4.76374">
        <ele>169.329468</ele>
        <time>2012-01-26T14:22:17Z</time>
      </trkpt>
      <trkpt lat="44.31239" lon="4.7639">
        <ele>169.329468</ele>
        <time>2012-01-26T14:22:28Z</time>
      </trkpt>
      <trkpt lat="44.3124" lon="4.76392">
        <ele>169.329468</ele>
        <time>2012-01-26T14:22:30Z</time>
      </trkpt>
      <trkpt lat="44.31243" lon="4.76394">
        <ele>169.329468</ele>
        <time>2012-01-26T14:22:33Z</time>
      </trkpt>
      <trkpt lat="44.31249" lon="4.76398">
        <ele>168.848755</ele>
        <time>2012-01-26T14:22:40Z</time>
      </trkpt>
      <trkpt lat="44.31263" lon="4.76405">
        <ele>168.368042</ele>
        <time>2012-01-26T14:22:57Z</time>
      </trkpt>
      <trkpt lat="44.3128" lon="4.76405">
        <ele>169.329468</ele>
        <time>2012-01-26T14:23:12Z</time>
      </trkpt>
      <trkpt lat="44.31294" lon="4.76404">
        <ele>168.848755</ele>
        <time>2012-01-26T14:23:28Z</time>
      </trkpt>
      <trkpt lat="44.31315" lon="4.76394">
        <ele>169.810059</ele>
        <time>2012-01-26T14:23:47Z</time>
      </trkpt>
      <trkpt lat="44.31329" lon="4.7639">
        <ele>169.810059</ele>
        <time>2012-01-26T14:24:02Z</time>
      </trkpt>
      <trkpt lat="44.31338" lon="4.76388">
        <ele>169.810059</ele>
        <time>2012-01-26T14:24:15Z</time>
      </trkpt>
      <trkpt lat="44.31347" lon="4.76387">
        <ele>170.290649</ele>
        <time>2012-01-26T14:24:19Z</time>
      </trkpt>
      <trkpt lat="44.31357" lon="4.76385">
        <ele>170.290649</ele>
        <time>2012-01-26T14:24:31Z</time>
      </trkpt>
      <trkpt lat="44.31373" lon="4.76373">
        <ele>170.290649</ele>
        <time>2012-01-26T14:24:49Z</time>
      </trkpt>
      <trkpt lat="44.31374" lon="4.76373">
        <ele>170.771362</ele>
        <time>2012-01-26T14:24:50Z</time>
      </trkpt>
      <trkpt lat="44.31382" lon="4.76368">
        <ele>170.290649</ele>
        <time>2012-01-26T14:24:58Z</time>
      </trkpt>
      <trkpt lat="44.31384" lon="4.76361">
        <ele>170.771362</ele>
        <time>2012-01-26T14:25:07Z</time>
      </trkpt>
      <trkpt lat="44.31393" lon="4.76351">
        <ele>169.810059</ele>
        <time>2012-01-26T14:25:17Z</time>
      </trkpt>
      <trkpt lat="44.314" lon="4.76347">
        <ele>170.290649</ele>
        <time>2012-01-26T14:25:23Z</time>
      </trkpt>
      <trkpt lat="44.31406" lon="4.76345">
        <ele>170.290649</ele>
        <time>2012-01-26T14:25:26Z</time>
      </trkpt>
      <trkpt lat="44.31409" lon="4.76342">
        <ele>170.771362</ele>
        <time>2012-01-26T14:25:30Z</time>
      </trkpt>
      <trkpt lat="44.31422" lon="4.76328">
        <ele>170.290649</ele>
        <time>2012-01-26T14:25:44Z</time>
      </trkpt>
      <trkpt lat="44.31436" lon="4.76325">
        <ele>171.252075</ele>
        <time>2012-01-26T14:25:59Z</time>
      </trkpt>
      <trkpt lat="44.31441" lon="4.7633">
        <ele>170.771362</ele>
        <time>2012-01-26T14:26:04Z</time>
      </trkpt>
      <trkpt lat="44.31448" lon="4.76335">
        <ele>171.732666</ele>
        <time>2012-01-26T14:26:14Z</time>
      </trkpt>
      <trkpt lat="44.31452" lon="4.76336">
        <ele>172.69397</ele>
        <time>2012-01-26T14:26:19Z</time>
      </trkpt>
      <trkpt lat="44.31468" lon="4.76339">
        <ele>175.09729</ele>
        <time>2012-01-26T14:26:37Z</time>
      </trkpt>
      <trkpt lat="44.31472" lon="4.76345">
        <ele>176.058594</ele>
        <time>2012-01-26T14:26:45Z</time>
      </trkpt>
      <trkpt lat="44.31474" lon="4.76347">
        <ele>176.058594</ele>
        <time>2012-01-26T14:26:47Z</time>
      </trkpt>
      <trkpt lat="44.31479" lon="4.76348">
        <ele>176.539307</ele>
        <time>2012-01-26T14:26:52Z</time>
      </trkpt>
      <trkpt lat="44.3148" lon="4.76351">
        <ele>177.02002</ele>
        <time>2012-01-26T14:26:54Z</time>
      </trkpt>
      <trkpt lat="44.31485" lon="4.76357">
        <ele>177.02002</ele>
        <time>2012-01-26T14:27:02Z</time>
      </trkpt>
      <trkpt lat="44.31488" lon="4.76358">
        <ele>176.058594</ele>
        <time>2012-01-26T14:27:04Z</time>
      </trkpt>
      <trkpt lat="44.31501" lon="4.76366">
        <ele>176.058594</ele>
        <time>2012-01-26T14:27:17Z</time>
      </trkpt>
      <trkpt lat="44.31519" lon="4.76368">
        <ele>176.058594</ele>
        <time>2012-01-26T14:27:35Z</time>
      </trkpt>
      <trkpt lat="44.31531" lon="4.76373">
        <ele>175.577881</ele>
        <time>2012-01-26T14:27:48Z</time>
      </trkpt>
      <trkpt lat="44.31531" lon="4.76374">
        <ele>175.577881</ele>
        <time>2012-01-26T14:27:49Z</time>
      </trkpt>
      <trkpt lat="44.31552" lon="4.76382">
        <ele>176.058594</ele>
        <time>2012-01-26T14:28:09Z</time>
      </trkpt>
      <trkpt lat="44.31575" lon="4.76389">
        <ele>175.09729</ele>
        <time>2012-01-26T14:28:37Z</time>
      </trkpt>
      <trkpt lat="44.316" lon="4.76396">
        <ele>174.616577</ele>
        <time>2012-01-26T14:28:59Z</time>
      </trkpt>
      <trkpt lat="44.3161" lon="4.76392">
        <ele>175.09729</ele>
        <time>2012-01-26T14:29:11Z</time>
      </trkpt>
      <trkpt lat="44.3162" lon="4.76391">
        <ele>174.616577</ele>
        <time>2012-01-26T14:29:20Z</time>
      </trkpt>
      <trkpt lat="44.31638" lon="4.76388">
        <ele>176.058594</ele>
        <time>2012-01-26T14:29:38Z</time>
      </trkpt>
      <trkpt lat="44.31648" lon="4.7638">
        <ele>176.539307</ele>
        <time>2012-01-26T14:29:49Z</time>
      </trkpt>
      <trkpt lat="44.31654" lon="4.76378">
        <ele>177.02002</ele>
        <time>2012-01-26T14:29:58Z</time>
      </trkpt>
      <trkpt lat="44.31667" lon="4.76377">
        <ele>177.981201</ele>
        <time>2012-01-26T14:30:14Z</time>
      </trkpt>
      <trkpt lat="44.31678" lon="4.7638">
        <ele>177.981201</ele>
        <time>2012-01-26T14:30:29Z</time>
      </trkpt>
      <trkpt lat="44.3169" lon="4.76378">
        <ele>177.981201</ele>
        <time>2012-01-26T14:30:44Z</time>
      </trkpt>
      <trkpt lat="44.317" lon="4.76368">
        <ele>178.461914</ele>
        <time>2012-01-26T14:31:01Z</time>
      </trkpt>
      <trkpt lat="44.31709" lon="4.76366">
        <ele>178.461914</ele>
        <time>2012-01-26T14:31:10Z</time>
      </trkpt>
      <trkpt lat="44.31719" lon="4.76365">
        <ele>178.461914</ele>
        <time>2012-01-26T14:31:22Z</time>
      </trkpt>
      <trkpt lat="44.31732" lon="4.76368">
        <ele>177.02002</ele>
        <time>2012-01-26T14:31:40Z</time>
      </trkpt>
      <trkpt lat="44.31733" lon="4.76367">
        <ele>177.02002</ele>
        <time>2012-01-26T14:31:41Z</time>
      </trkpt>
      <trkpt lat="44.31741" lon="4.76369">
        <ele>176.539307</ele>
        <time>2012-01-26T14:31:52Z</time>
      </trkpt>
      <trkpt lat="44.31756" lon="4.7637">
        <ele>176.539307</ele>
        <time>2012-01-26T14:32:09Z</time>
      </trkpt>
      <trkpt lat="44.31767" lon="4.76371">
        <ele>176.058594</ele>
        <time>2012-01-26T14:32:21Z</time>
      </trkpt>
      <trkpt lat="44.31776" lon="4.76371">
        <ele>175.577881</ele>
        <time>2012-01-26T14:32:31Z</time>
      </trkpt>
      <trkpt lat="44.31784" lon="4.76365">
        <ele>176.058594</ele>
        <time>2012-01-26T14:32:45Z</time>
      </trkpt>
      <trkpt lat="44.31794" lon="4.76364">
        <ele>176.058594</ele>
        <time>2012-01-26T14:32:49Z</time>
      </trkpt>
      <trkpt lat="44.31803" lon="4.76364">
        <ele>176.539307</ele>
        <time>2012-01-26T14:33:02Z</time>
      </trkpt>
      <trkpt lat="44.31807" lon="4.76368">
        <ele>176.539307</ele>
        <time>2012-01-26T14:33:05Z</time>
      </trkpt>
      <trkpt lat="44.3181" lon="4.76372">
        <ele>176.058594</ele>
        <time>2012-01-26T14:33:08Z</time>
      </trkpt>
      <trkpt lat="44.31812" lon="4.76378">
        <ele>176.058594</ele>
        <time>2012-01-26T14:33:12Z</time>
      </trkpt>
      <trkpt lat="44.3181" lon="4.76396">
        <ele>176.058594</ele>
        <time>2012-01-26T14:33:24Z</time>
      </trkpt>
      <trkpt lat="44.31811" lon="4.76399">
        <ele>176.058594</ele>
        <time>2012-01-26T14:33:27Z</time>
      </trkpt>
      <trkpt lat="44.31814" lon="4.76405">
        <ele>176.539307</ele>
        <time>2012-01-26T14:33:37Z</time>
      </trkpt>
      <trkpt lat="44.31814" lon="4.76409">
        <ele>175.577881</ele>
        <time>2012-01-26T14:33:41Z</time>
      </trkpt>
      <trkpt lat="44.31814" lon="4.76427">
        <ele>176.058594</ele>
        <time>2012-01-26T14:33:56Z</time>
      </trkpt>
      <trkpt lat="44.31816" lon="4.76435">
        <ele>175.577881</ele>
        <time>2012-01-26T14:34:04Z</time>
      </trkpt>
      <trkpt lat="44.31821" lon="4.76445">
        <ele>174.616577</ele>
        <time>2012-01-26T14:34:15Z</time>
      </trkpt>
      <trkpt lat="44.31827" lon="4.76456">
        <ele>172.213257</ele>
        <time>2012-01-26T14:34:30Z</time>
      </trkpt>
      <trkpt lat="44.31826" lon="4.76464">
        <ele>171.732666</ele>
        <time>2012-01-26T14:34:40Z</time>
      </trkpt>
      <trkpt lat="44.31829" lon="4.76472">
        <ele>170.771362</ele>
        <time>2012-01-26T14:34:46Z</time>
      </trkpt>
      <trkpt lat="44.3183" lon="4.76474">
        <ele>170.290649</ele>
        <time>2012-01-26T14:34:49Z</time>
      </trkpt>
      <trkpt lat="44.31839" lon="4.76481">
        <ele>170.290649</ele>
        <time>2012-01-26T14:34:59Z</time>
      </trkpt>
      <trkpt lat="44.31846" lon="4.76484">
        <ele>168.848755</ele>
        <time>2012-01-26T14:35:07Z</time>
      </trkpt>
      <trkpt lat="44.31856" lon="4.76482">
        <ele>167.887329</ele>
        <time>2012-01-26T14:35:20Z</time>
      </trkpt>
      <trkpt lat="44.31864" lon="4.76485">
        <ele>168.368042</ele>
        <time>2012-01-26T14:35:26Z</time>
      </trkpt>
      <trkpt lat="44.31867" lon="4.76485">
        <ele>168.368042</ele>
        <time>2012-01-26T14:35:29Z</time>
      </trkpt>
      <trkpt lat="44.31874" lon="4.76485">
        <ele>167.887329</ele>
        <time>2012-01-26T14:35:37Z</time>
      </trkpt>
      <trkpt lat="44.31881" lon="4.76486">
        <ele>167.887329</ele>
        <time>2012-01-26T14:35:47Z</time>
      </trkpt>
      <trkpt lat="44.31885" lon="4.76486">
        <ele>168.368042</ele>
        <time>2012-01-26T14:35:52Z</time>
      </trkpt>
      <trkpt lat="44.31899" lon="4.76496">
        <ele>166.926025</ele>
        <time>2012-01-26T14:36:05Z</time>
      </trkpt>
      <trkpt lat="44.31912" lon="4.76499">
        <ele>168.848755</ele>
        <time>2012-01-26T14:36:18Z</time>
      </trkpt>
      <trkpt lat="44.31915" lon="4.76497">
        <ele>168.848755</ele>
        <time>2012-01-26T14:36:33Z</time>
      </trkpt>
      <trkpt lat="44.31918" lon="4.76497">
        <ele>169.329468</ele>
        <time>2012-01-26T14:36:44Z</time>
      </trkpt>
      <trkpt lat="44.31924" lon="4.76494">
        <ele>170.771362</ele>
        <time>2012-01-26T14:36:55Z</time>
      </trkpt>
      <trkpt lat="44.31929" lon="4.76492">
        <ele>172.213257</ele>
        <time>2012-01-26T14:37:04Z</time>
      </trkpt>
      <trkpt lat="44.31932" lon="4.76493">
        <ele>172.69397</ele>
        <time>2012-01-26T14:37:15Z</time>
      </trkpt>
      <trkpt lat="44.31938" lon="4.76496">
        <ele>172.69397</ele>
        <time>2012-01-26T14:37:30Z</time>
      </trkpt>
      <trkpt lat="44.31942" lon="4.76501">
        <ele>172.213257</ele>
        <time>2012-01-26T14:38:26Z</time>
      </trkpt>
      <trkpt lat="44.31952" lon="4.76508">
        <ele>173.655273</ele>
        <time>2012-01-26T14:38:47Z</time>
      </trkpt>
      <trkpt lat="44.31958" lon="4.76512">
        <ele>170.290649</ele>
        <time>2012-01-26T14:39:12Z</time>
      </trkpt>
      <trkpt lat="44.31964" lon="4.76521">
        <ele>172.213257</ele>
        <time>2012-01-26T14:39:25Z</time>
      </trkpt>
      <trkpt lat="44.31955" lon="4.76526">
        <ele>172.213257</ele>
        <time>2012-01-26T14:39:39Z</time>
      </trkpt>
      <trkpt lat="44.31953" lon="4.76528">
        <ele>172.213257</ele>
        <time>2012-01-26T14:39:41Z</time>
      </trkpt>
      <trkpt lat="44.31944" lon="4.76536">
        <ele>175.09729</ele>
        <time>2012-01-26T14:39:57Z</time>
      </trkpt>
      <trkpt lat="44.31937" lon="4.76547">
        <ele>177.981201</ele>
        <time>2012-01-26T14:40:13Z</time>
      </trkpt>
      <trkpt lat="44.31931" lon="4.76555">
        <ele>179.903809</ele>
        <time>2012-01-26T14:40:25Z</time>
      </trkpt>
      <trkpt lat="44.31932" lon="4.76556">
        <ele>179.903809</ele>
        <time>2012-01-26T14:40:28Z</time>
      </trkpt>
      <trkpt lat="44.31927" lon="4.76563">
        <ele>180.865234</ele>
        <time>2012-01-26T14:40:39Z</time>
      </trkpt>
      <trkpt lat="44.31926" lon="4.76564">
        <ele>181.345825</ele>
        <time>2012-01-26T14:40:45Z</time>
      </trkpt>
      <trkpt lat="44.31924" lon="4.76563">
        <ele>181.345825</ele>
        <time>2012-01-26T14:41:03Z</time>
      </trkpt>
      <trkpt lat="44.31914" lon="4.76568">
        <ele>180.865234</ele>
        <time>2012-01-26T14:41:55Z</time>
      </trkpt>
      <trkpt lat="44.31908" lon="4.76571">
        <ele>180.865234</ele>
        <time>2012-01-26T14:42:05Z</time>
      </trkpt>
      <trkpt lat="44.31907" lon="4.76574">
        <ele>181.345825</ele>
        <time>2012-01-26T14:42:08Z</time>
      </trkpt>
      <trkpt lat="44.31901" lon="4.76592">
        <ele>181.345825</ele>
        <time>2012-01-26T14:42:20Z</time>
      </trkpt>
      <trkpt lat="44.31901" lon="4.76601">
        <ele>180.865234</ele>
        <time>2012-01-26T14:42:28Z</time>
      </trkpt>
      <trkpt lat="44.31896" lon="4.7661">
        <ele>179.423218</ele>
        <time>2012-01-26T14:42:38Z</time>
      </trkpt>
      <trkpt lat="44.31892" lon="4.76617">
        <ele>177.50061</ele>
        <time>2012-01-26T14:42:51Z</time>
      </trkpt>
      <trkpt lat="44.31891" lon="4.76622">
        <ele>177.02002</ele>
        <time>2012-01-26T14:42:55Z</time>
      </trkpt>
      <trkpt lat="44.31886" lon="4.76632">
        <ele>178.942627</ele>
        <time>2012-01-26T14:43:09Z</time>
      </trkpt>
      <trkpt lat="44.31881" lon="4.76642">
        <ele>178.942627</ele>
        <time>2012-01-26T14:43:23Z</time>
      </trkpt>
      <trkpt lat="44.31874" lon="4.76651">
        <ele>178.942627</ele>
        <time>2012-01-26T14:43:35Z</time>
      </trkpt>
      <trkpt lat="44.31859" lon="4.76661">
        <ele>180.384521</ele>
        <time>2012-01-26T14:43:52Z</time>
      </trkpt>
      <trkpt lat="44.3185" lon="4.76664">
        <ele>180.384521</ele>
        <time>2012-01-26T14:44:09Z</time>
      </trkpt>
      <trkpt lat="44.31838" lon="4.7666">
        <ele>179.423218</ele>
        <time>2012-01-26T14:44:24Z</time>
      </trkpt>
      <trkpt lat="44.31822" lon="4.76667">
        <ele>180.384521</ele>
        <time>2012-01-26T14:44:37Z</time>
      </trkpt>
      <trkpt lat="44.3181" lon="4.76675">
        <ele>180.865234</ele>
        <time>2012-01-26T14:44:51Z</time>
      </trkpt>
      <trkpt lat="44.31809" lon="4.76675">
        <ele>180.865234</ele>
        <time>2012-01-26T14:44:59Z</time>
      </trkpt>
      <trkpt lat="44.318" lon="4.7668">
        <ele>179.903809</ele>
        <time>2012-01-26T14:45:09Z</time>
      </trkpt>
      <trkpt lat="44.31795" lon="4.76696">
        <ele>178.942627</ele>
        <time>2012-01-26T14:45:23Z</time>
      </trkpt>
      <trkpt lat="44.31798" lon="4.76707">
        <ele>178.942627</ele>
        <time>2012-01-26T14:45:33Z</time>
      </trkpt>
      <trkpt lat="44.31805" lon="4.76723">
        <ele>179.423218</ele>
        <time>2012-01-26T14:45:47Z</time>
      </trkpt>
      <trkpt lat="44.31813" lon="4.76734">
        <ele>179.423218</ele>
        <time>2012-01-26T14:46:01Z</time>
      </trkpt>
      <trkpt lat="44.3182" lon="4.76741">
        <ele>179.423218</ele>
        <time>2012-01-26T14:46:11Z</time>
      </trkpt>
      <trkpt lat="44.31823" lon="4.76744">
        <ele>179.903809</ele>
        <time>2012-01-26T14:46:15Z</time>
      </trkpt>
      <trkpt lat="44.31827" lon="4.76744">
        <ele>180.384521</ele>
        <time>2012-01-26T14:46:36Z</time>
      </trkpt>
      <trkpt lat="44.31834" lon="4.7675">
        <ele>179.903809</ele>
        <time>2012-01-26T14:46:52Z</time>
      </trkpt>
      <trkpt lat="44.31845" lon="4.76756">
        <ele>179.423218</ele>
        <time>2012-01-26T14:47:05Z</time>
      </trkpt>
      <trkpt lat="44.31857" lon="4.76763">
        <ele>178.942627</ele>
        <time>2012-01-26T14:47:19Z</time>
      </trkpt>
      <trkpt lat="44.3186" lon="4.76773">
        <ele>177.981201</ele>
        <time>2012-01-26T14:47:36Z</time>
      </trkpt>
      <trkpt lat="44.31867" lon="4.76783">
        <ele>177.981201</ele>
        <time>2012-01-26T14:47:48Z</time>
      </trkpt>
      <trkpt lat="44.31869" lon="4.76796">
        <ele>177.02002</ele>
        <time>2012-01-26T14:47:59Z</time>
      </trkpt>
      <trkpt lat="44.3187" lon="4.76804">
        <ele>174.616577</ele>
        <time>2012-01-26T14:48:15Z</time>
      </trkpt>
      <trkpt lat="44.31866" lon="4.76804">
        <ele>173.655273</ele>
        <time>2012-01-26T14:48:22Z</time>
      </trkpt>
      <trkpt lat="44.31861" lon="4.76805">
        <ele>173.174683</ele>
        <time>2012-01-26T14:48:28Z</time>
      </trkpt>
      <trkpt lat="44.31851" lon="4.76807">
        <ele>172.213257</ele>
        <time>2012-01-26T14:48:38Z</time>
      </trkpt>
      <trkpt lat="44.3185" lon="4.76807">
        <ele>172.213257</ele>
        <time>2012-01-26T14:48:39Z</time>
      </trkpt>
      <trkpt lat="44.3184" lon="4.76821">
        <ele>174.616577</ele>
        <time>2012-01-26T14:48:53Z</time>
      </trkpt>
      <trkpt lat="44.31833" lon="4.76827">
        <ele>175.577881</ele>
        <time>2012-01-26T14:49:05Z</time>
      </trkpt>
      <trkpt lat="44.31822" lon="4.76834">
        <ele>176.058594</ele>
        <time>2012-01-26T14:49:21Z</time>
      </trkpt>
      <trkpt lat="44.3182" lon="4.76835">
        <ele>175.577881</ele>
        <time>2012-01-26T14:49:25Z</time>
      </trkpt>
      <trkpt lat="44.31814" lon="4.76842">
        <ele>175.577881</ele>
        <time>2012-01-26T14:49:34Z</time>
      </trkpt>
      <trkpt lat="44.31812" lon="4.76846">
        <ele>176.058594</ele>
        <time>2012-01-26T14:49:36Z</time>
      </trkpt>
      <trkpt lat="44.31806" lon="4.76849">
        <ele>175.577881</ele>
        <time>2012-01-26T14:49:47Z</time>
      </trkpt>
      <trkpt lat="44.318" lon="4.76847">
        <ele>175.577881</ele>
        <time>2012-01-26T14:49:55Z</time>
      </trkpt>
      <trkpt lat="44.31796" lon="4.76844">
        <ele>176.058594</ele>
        <time>2012-01-26T14:50:01Z</time>
      </trkpt>
      <trkpt lat="44.31794" lon="4.76842">
        <ele>176.539307</ele>
        <time>2012-01-26T14:50:04Z</time>
      </trkpt>
      <trkpt lat="44.31783" lon="4.76835">
        <ele>176.539307</ele>
        <time>2012-01-26T14:50:16Z</time>
      </trkpt>
      <trkpt lat="44.3177" lon="4.76841">
        <ele>177.50061</ele>
        <time>2012-01-26T14:50:30Z</time>
      </trkpt>
      <trkpt lat="44.31763" lon="4.76843">
        <ele>177.50061</ele>
        <time>2012-01-26T14:50:36Z</time>
      </trkpt>
      <trkpt lat="44.31756" lon="4.76847">
        <ele>177.50061</ele>
        <time>2012-01-26T14:50:45Z</time>
      </trkpt>
      <trkpt lat="44.31746" lon="4.76851">
        <ele>177.981201</ele>
        <time>2012-01-26T14:50:59Z</time>
      </trkpt>
      <trkpt lat="44.31739" lon="4.76858">
        <ele>177.981201</ele>
        <time>2012-01-26T14:51:12Z</time>
      </trkpt>
      <trkpt lat="44.31724" lon="4.76864">
        <ele>178.942627</ele>
        <time>2012-01-26T14:51:29Z</time>
      </trkpt>
      <trkpt lat="44.31713" lon="4.76858">
        <ele>180.384521</ele>
        <time>2012-01-26T14:51:44Z</time>
      </trkpt>
      <trkpt lat="44.31706" lon="4.76848">
        <ele>179.903809</ele>
        <time>2012-01-26T14:51:56Z</time>
      </trkpt>
      <trkpt lat="44.31702" lon="4.76843">
        <ele>178.942627</ele>
        <time>2012-01-26T14:52:02Z</time>
      </trkpt>
      <trkpt lat="44.317" lon="4.7684">
        <ele>178.942627</ele>
        <time>2012-01-26T14:52:04Z</time>
      </trkpt>
      <trkpt lat="44.31689" lon="4.76825">
        <ele>178.942627</ele>
        <time>2012-01-26T14:52:20Z</time>
      </trkpt>
      <trkpt lat="44.31678" lon="4.76816">
        <ele>179.903809</ele>
        <time>2012-01-26T14:52:33Z</time>
      </trkpt>
      <trkpt lat="44.31673" lon="4.76812">
        <ele>178.942627</ele>
        <time>2012-01-26T14:52:39Z</time>
      </trkpt>
      <trkpt lat="44.3166" lon="4.76802">
        <ele>178.461914</ele>
        <time>2012-01-26T14:52:56Z</time>
      </trkpt>
      <trkpt lat="44.31651" lon="4.76793">
        <ele>178.942627</ele>
        <time>2012-01-26T14:53:11Z</time>
      </trkpt>
      <trkpt lat="44.31641" lon="4.76788">
        <ele>177.981201</ele>
        <time>2012-01-26T14:53:22Z</time>
      </trkpt>
      <trkpt lat="44.31632" lon="4.76782">
        <ele>178.942627</ele>
        <time>2012-01-26T14:53:35Z</time>
      </trkpt>
      <trkpt lat="44.31614" lon="4.76779">
        <ele>179.903809</ele>
        <time>2012-01-26T14:53:52Z</time>
      </trkpt>
      <trkpt lat="44.3161" lon="4.76778">
        <ele>180.865234</ele>
        <time>2012-01-26T14:54:01Z</time>
      </trkpt>
      <trkpt lat="44.31601" lon="4.76771">
        <ele>178.942627</ele>
        <time>2012-01-26T14:54:13Z</time>
      </trkpt>
      <trkpt lat="44.31596" lon="4.76767">
        <ele>178.942627</ele>
        <time>2012-01-26T14:54:15Z</time>
      </trkpt>
      <trkpt lat="44.31594" lon="4.76766">
        <ele>178.942627</ele>
        <time>2012-01-26T14:54:17Z</time>
      </trkpt>
      <trkpt lat="44.31587" lon="4.76759">
        <ele>177.981201</ele>
        <time>2012-01-26T14:54:28Z</time>
      </trkpt>
      <trkpt lat="44.31585" lon="4.76758">
        <ele>177.50061</ele>
        <time>2012-01-26T14:54:31Z</time>
      </trkpt>
      <trkpt lat="44.3158" lon="4.76754">
        <ele>177.50061</ele>
        <time>2012-01-26T14:54:35Z</time>
      </trkpt>
      <trkpt lat="44.31569" lon="4.76751">
        <ele>177.02002</ele>
        <time>2012-01-26T14:54:52Z</time>
      </trkpt>
      <trkpt lat="44.31567" lon="4.7675">
        <ele>177.50061</ele>
        <time>2012-01-26T14:54:59Z</time>
      </trkpt>
      <trkpt lat="44.3155" lon="4.76745">
        <ele>177.981201</ele>
        <time>2012-01-26T14:55:12Z</time>
      </trkpt>
      <trkpt lat="44.31546" lon="4.76743">
        <ele>177.50061</ele>
        <time>2012-01-26T14:55:16Z</time>
      </trkpt>
      <trkpt lat="44.31536" lon="4.76745">
        <ele>177.02002</ele>
        <time>2012-01-26T14:55:22Z</time>
      </trkpt>
      <trkpt lat="44.31526" lon="4.76748">
        <ele>176.539307</ele>
        <time>2012-01-26T14:55:36Z</time>
      </trkpt>
      <trkpt lat="44.31512" lon="4.7675">
        <ele>177.02002</ele>
        <time>2012-01-26T14:55:55Z</time>
      </trkpt>
      <trkpt lat="44.31498" lon="4.76752">
        <ele>177.50061</ele>
        <time>2012-01-26T14:56:08Z</time>
      </trkpt>
      <trkpt lat="44.31486" lon="4.76756">
        <ele>177.981201</ele>
        <time>2012-01-26T14:56:22Z</time>
      </trkpt>
      <trkpt lat="44.31471" lon="4.76766">
        <ele>177.981201</ele>
        <time>2012-01-26T14:56:38Z</time>
      </trkpt>
      <trkpt lat="44.3146" lon="4.76773">
        <ele>177.50061</ele>
        <time>2012-01-26T14:56:53Z</time>
      </trkpt>
      <trkpt lat="44.31451" lon="4.76781">
        <ele>177.50061</ele>
        <time>2012-01-26T14:57:06Z</time>
      </trkpt>
      <trkpt lat="44.31442" lon="4.76789">
        <ele>177.02002</ele>
        <time>2012-01-26T14:57:20Z</time>
      </trkpt>
      <trkpt lat="44.3143" lon="4.768">
        <ele>177.02002</ele>
        <time>2012-01-26T14:57:32Z</time>
      </trkpt>
      <trkpt lat="44.31417" lon="4.76805">
        <ele>176.539307</ele>
        <time>2012-01-26T14:57:46Z</time>
      </trkpt>
      <trkpt lat="44.31406" lon="4.76812">
        <ele>176.058594</ele>
        <time>2012-01-26T14:57:56Z</time>
      </trkpt>
      <trkpt lat="44.31405" lon="4.76818">
        <ele>175.577881</ele>
        <time>2012-01-26T14:58:05Z</time>
      </trkpt>
      <trkpt lat="44.314" lon="4.76831">
        <ele>175.577881</ele>
        <time>2012-01-26T14:58:15Z</time>
      </trkpt>
      <trkpt lat="44.31392" lon="4.76844">
        <ele>175.09729</ele>
        <time>2012-01-26T14:58:24Z</time>
      </trkpt>
      <trkpt lat="44.3139" lon="4.76858">
        <ele>174.616577</ele>
        <time>2012-01-26T14:58:35Z</time>
      </trkpt>
      <trkpt lat="44.3139" lon="4.76875">
        <ele>173.655273</ele>
        <time>2012-01-26T14:58:50Z</time>
      </trkpt>
      <trkpt lat="44.31384" lon="4.76888">
        <ele>172.69397</ele>
        <time>2012-01-26T14:59:03Z</time>
      </trkpt>
      <trkpt lat="44.31374" lon="4.76896">
        <ele>171.732666</ele>
        <time>2012-01-26T14:59:16Z</time>
      </trkpt>
      <trkpt lat="44.31368" lon="4.76916">
        <ele>170.290649</ele>
        <time>2012-01-26T14:59:33Z</time>
      </trkpt>
      <trkpt lat="44.3137" lon="4.76921">
        <ele>170.771362</ele>
        <time>2012-01-26T14:59:36Z</time>
      </trkpt>
      <trkpt lat="44.31368" lon="4.76932">
        <ele>170.771362</ele>
        <time>2012-01-26T14:59:45Z</time>
      </trkpt>
      <trkpt lat="44.31368" lon="4.76936">
        <ele>170.771362</ele>
        <time>2012-01-26T14:59:48Z</time>
      </trkpt>
      <trkpt lat="44.31367" lon="4.76939">
        <ele>170.771362</ele>
        <time>2012-01-26T14:59:50Z</time>
      </trkpt>
      <trkpt lat="44.31371" lon="4.76948">
        <ele>171.252075</ele>
        <time>2012-01-26T15:00:02Z</time>
      </trkpt>
      <trkpt lat="44.3138" lon="4.76962">
        <ele>171.732666</ele>
        <time>2012-01-26T15:00:18Z</time>
      </trkpt>
      <trkpt lat="44.31377" lon="4.76983">
        <ele>172.69397</ele>
        <time>2012-01-26T15:00:33Z</time>
      </trkpt>
      <trkpt lat="44.31376" lon="4.76988">
        <ele>173.174683</ele>
        <time>2012-01-26T15:00:39Z</time>
      </trkpt>
      <trkpt lat="44.31375" lon="4.76993">
        <ele>173.174683</ele>
        <time>2012-01-26T15:00:42Z</time>
      </trkpt>
      <trkpt lat="44.31382" lon="4.77003">
        <ele>174.135864</ele>
        <time>2012-01-26T15:00:54Z</time>
      </trkpt>
      <trkpt lat="44.31385" lon="4.77012">
        <ele>175.577881</ele>
        <time>2012-01-26T15:01:04Z</time>
      </trkpt>
      <trkpt lat="44.31392" lon="4.77023">
        <ele>177.981201</ele>
        <time>2012-01-26T15:01:20Z</time>
      </trkpt>
      <trkpt lat="44.31398" lon="4.77027">
        <ele>179.903809</ele>
        <time>2012-01-26T15:01:32Z</time>
      </trkpt>
      <trkpt lat="44.31399" lon="4.77031">
        <ele>180.865234</ele>
        <time>2012-01-26T15:01:38Z</time>
      </trkpt>
      <trkpt lat="44.31398" lon="4.77036">
        <ele>181.826416</ele>
        <time>2012-01-26T15:01:44Z</time>
      </trkpt>
      <trkpt lat="44.31401" lon="4.77039">
        <ele>182.787842</ele>
        <time>2012-01-26T15:01:47Z</time>
      </trkpt>
      <trkpt lat="44.31404" lon="4.77043">
        <ele>183.749023</ele>
        <time>2012-01-26T15:01:59Z</time>
      </trkpt>
      <trkpt lat="44.31405" lon="4.77054">
        <ele>184.710571</ele>
        <time>2012-01-26T15:02:12Z</time>
      </trkpt>
      <trkpt lat="44.31405" lon="4.77059">
        <ele>184.710571</ele>
        <time>2012-01-26T15:02:16Z</time>
      </trkpt>
      <trkpt lat="44.31398" lon="4.77071">
        <ele>184.229858</ele>
        <time>2012-01-26T15:02:30Z</time>
      </trkpt>
      <trkpt lat="44.31395" lon="4.77078">
        <ele>184.229858</ele>
        <time>2012-01-26T15:02:40Z</time>
      </trkpt>
      <trkpt lat="44.31394" lon="4.77082">
        <ele>183.749023</ele>
        <time>2012-01-26T15:02:52Z</time>
      </trkpt>
      <trkpt lat="44.31392" lon="4.77081">
        <ele>184.229858</ele>
        <time>2012-01-26T15:03:10Z</time>
      </trkpt>
      <trkpt lat="44.31392" lon="4.77081">
        <ele>183.749023</ele>
        <time>2012-01-26T15:04:12Z</time>
      </trkpt>
      <trkpt lat="44.31391" lon="4.77081">
        <ele>183.749023</ele>
        <time>2012-01-26T15:04:56Z</time>
      </trkpt>
      <trkpt lat="44.3139" lon="4.77082">
        <ele>183.749023</ele>
        <time>2012-01-26T15:05:09Z</time>
      </trkpt>
      <trkpt lat="44.31385" lon="4.77094">
        <ele>183.268433</ele>
        <time>2012-01-26T15:05:23Z</time>
      </trkpt>
      <trkpt lat="44.31382" lon="4.77095">
        <ele>183.268433</ele>
        <time>2012-01-26T15:05:37Z</time>
      </trkpt>
      <trkpt lat="44.3138" lon="4.77098">
        <ele>182.787842</ele>
        <time>2012-01-26T15:05:51Z</time>
      </trkpt>
      <trkpt lat="44.31379" lon="4.77105">
        <ele>182.787842</ele>
        <time>2012-01-26T15:05:58Z</time>
      </trkpt>
      <trkpt lat="44.31378" lon="4.77111">
        <ele>182.787842</ele>
        <time>2012-01-26T15:06:04Z</time>
      </trkpt>
      <trkpt lat="44.31371" lon="4.77124">
        <ele>182.307129</ele>
        <time>2012-01-26T15:06:14Z</time>
      </trkpt>
      <trkpt lat="44.31364" lon="4.77137">
        <ele>182.307129</ele>
        <time>2012-01-26T15:06:28Z</time>
      </trkpt>
      <trkpt lat="44.31357" lon="4.77145">
        <ele>181.826416</ele>
        <time>2012-01-26T15:06:40Z</time>
      </trkpt>
      <trkpt lat="44.31356" lon="4.77148">
        <ele>181.826416</ele>
        <time>2012-01-26T15:06:45Z</time>
      </trkpt>
      <trkpt lat="44.31353" lon="4.77158">
        <ele>181.345825</ele>
        <time>2012-01-26T15:06:53Z</time>
      </trkpt>
      <trkpt lat="44.31348" lon="4.77163">
        <ele>181.826416</ele>
        <time>2012-01-26T15:06:57Z</time>
      </trkpt>
      <trkpt lat="44.31343" lon="4.77171">
        <ele>181.345825</ele>
        <time>2012-01-26T15:07:07Z</time>
      </trkpt>
      <trkpt lat="44.31337" lon="4.77182">
        <ele>180.865234</ele>
        <time>2012-01-26T15:07:16Z</time>
      </trkpt>
      <trkpt lat="44.31337" lon="4.7719">
        <ele>180.384521</ele>
        <time>2012-01-26T15:07:21Z</time>
      </trkpt>
      <trkpt lat="44.31337" lon="4.77197">
        <ele>179.903809</ele>
        <time>2012-01-26T15:07:28Z</time>
      </trkpt>
      <trkpt lat="44.31336" lon="4.77208">
        <ele>179.903809</ele>
        <time>2012-01-26T15:07:38Z</time>
      </trkpt>
      <trkpt lat="44.31337" lon="4.77222">
        <ele>179.423218</ele>
        <time>2012-01-26T15:07:49Z</time>
      </trkpt>
      <trkpt lat="44.31338" lon="4.77225">
        <ele>179.423218</ele>
        <time>2012-01-26T15:07:51Z</time>
      </trkpt>
      <trkpt lat="44.31338" lon="4.77242">
        <ele>178.942627</ele>
        <time>2012-01-26T15:08:03Z</time>
      </trkpt>
      <trkpt lat="44.31344" lon="4.77253">
        <ele>179.423218</ele>
        <time>2012-01-26T15:08:15Z</time>
      </trkpt>
      <trkpt lat="44.31355" lon="4.77263">
        <ele>180.384521</ele>
        <time>2012-01-26T15:08:31Z</time>
      </trkpt>
      <trkpt lat="44.31358" lon="4.77267">
        <ele>180.384521</ele>
        <time>2012-01-26T15:08:36Z</time>
      </trkpt>
      <trkpt lat="44.31364" lon="4.77272">
        <ele>181.345825</ele>
        <time>2012-01-26T15:08:49Z</time>
      </trkpt>
      <trkpt lat="44.31368" lon="4.77278">
        <ele>180.865234</ele>
        <time>2012-01-26T15:09:04Z</time>
      </trkpt>
      <trkpt lat="44.31371" lon="4.77283">
        <ele>181.345825</ele>
        <time>2012-01-26T15:09:10Z</time>
      </trkpt>
      <trkpt lat="44.31379" lon="4.7729">
        <ele>181.826416</ele>
        <time>2012-01-26T15:09:17Z</time>
      </trkpt>
      <trkpt lat="44.31392" lon="4.77295">
        <ele>182.307129</ele>
        <time>2012-01-26T15:09:29Z</time>
      </trkpt>
      <trkpt lat="44.31396" lon="4.77296">
        <ele>182.787842</ele>
        <time>2012-01-26T15:09:33Z</time>
      </trkpt>
      <trkpt lat="44.31401" lon="4.77298">
        <ele>183.268433</ele>
        <time>2012-01-26T15:09:39Z</time>
      </trkpt>
      <trkpt lat="44.31412" lon="4.773">
        <ele>183.268433</ele>
        <time>2012-01-26T15:09:50Z</time>
      </trkpt>
      <trkpt lat="44.31425" lon="4.77305">
        <ele>183.268433</ele>
        <time>2012-01-26T15:10:03Z</time>
      </trkpt>
      <trkpt lat="44.3143" lon="4.77303">
        <ele>183.749023</ele>
        <time>2012-01-26T15:10:13Z</time>
      </trkpt>
      <trkpt lat="44.31441" lon="4.77307">
        <ele>184.710571</ele>
        <time>2012-01-26T15:10:28Z</time>
      </trkpt>
      <trkpt lat="44.31444" lon="4.77311">
        <ele>184.229858</ele>
        <time>2012-01-26T15:10:34Z</time>
      </trkpt>
      <trkpt lat="44.31449" lon="4.77324">
        <ele>182.307129</ele>
        <time>2012-01-26T15:10:47Z</time>
      </trkpt>
      <trkpt lat="44.3145" lon="4.77329">
        <ele>181.826416</ele>
        <time>2012-01-26T15:10:52Z</time>
      </trkpt>
      <trkpt lat="44.31452" lon="4.77336">
        <ele>180.384521</ele>
        <time>2012-01-26T15:11:03Z</time>
      </trkpt>
      <trkpt lat="44.31458" lon="4.77339">
        <ele>179.423218</ele>
        <time>2012-01-26T15:11:10Z</time>
      </trkpt>
      <trkpt lat="44.31465" lon="4.77346">
        <ele>177.981201</ele>
        <time>2012-01-26T15:11:22Z</time>
      </trkpt>
      <trkpt lat="44.31469" lon="4.77347">
        <ele>177.50061</ele>
        <time>2012-01-26T15:11:25Z</time>
      </trkpt>
      <trkpt lat="44.31476" lon="4.7735">
        <ele>176.539307</ele>
        <time>2012-01-26T15:11:34Z</time>
      </trkpt>
      <trkpt lat="44.31481" lon="4.77352">
        <ele>176.058594</ele>
        <time>2012-01-26T15:11:40Z</time>
      </trkpt>
      <trkpt lat="44.31487" lon="4.77356">
        <ele>175.577881</ele>
        <time>2012-01-26T15:11:49Z</time>
      </trkpt>
      <trkpt lat="44.31488" lon="4.77356">
        <ele>175.577881</ele>
        <time>2012-01-26T15:11:50Z</time>
      </trkpt>
      <trkpt lat="44.31494" lon="4.77357">
        <ele>176.058594</ele>
        <time>2012-01-26T15:12:03Z</time>
      </trkpt>
      <trkpt lat="44.31494" lon="4.77358">
        <ele>175.577881</ele>
        <time>2012-01-26T15:12:09Z</time>
      </trkpt>
      <trkpt lat="44.31501" lon="4.7736">
        <ele>176.058594</ele>
        <time>2012-01-26T15:12:24Z</time>
      </trkpt>
      <trkpt lat="44.31504" lon="4.7737">
        <ele>176.058594</ele>
        <time>2012-01-26T15:12:38Z</time>
      </trkpt>
      <trkpt lat="44.31503" lon="4.77372">
        <ele>176.539307</ele>
        <time>2012-01-26T15:12:49Z</time>
      </trkpt>
      <trkpt lat="44.31501" lon="4.7737">
        <ele>176.539307</ele>
        <time>2012-01-26T15:12:55Z</time>
      </trkpt>
      <trkpt lat="44.31503" lon="4.77377">
        <ele>177.50061</ele>
        <time>2012-01-26T15:13:00Z</time>
      </trkpt>
      <trkpt lat="44.31505" lon="4.77381">
        <ele>178.461914</ele>
        <time>2012-01-26T15:13:07Z</time>
      </trkpt>
      <trkpt lat="44.315" lon="4.77392">
        <ele>179.423218</ele>
        <time>2012-01-26T15:13:15Z</time>
      </trkpt>
      <trkpt lat="44.31502" lon="4.77401">
        <ele>181.345825</ele>
        <time>2012-01-26T15:13:27Z</time>
      </trkpt>
      <trkpt lat="44.31509" lon="4.77401">
        <ele>183.268433</ele>
        <time>2012-01-26T15:13:39Z</time>
      </trkpt>
      <trkpt lat="44.31516" lon="4.77403">
        <ele>186.633179</ele>
        <time>2012-01-26T15:13:52Z</time>
      </trkpt>
      <trkpt lat="44.31518" lon="4.77412">
        <ele>187.59436</ele>
        <time>2012-01-26T15:14:12Z</time>
      </trkpt>
      <trkpt lat="44.31519" lon="4.77411">
        <ele>188.075073</ele>
        <time>2012-01-26T15:14:16Z</time>
      </trkpt>
      <trkpt lat="44.3152" lon="4.77405">
        <ele>187.59436</ele>
        <time>2012-01-26T15:14:23Z</time>
      </trkpt>
      <trkpt lat="44.31521" lon="4.774">
        <ele>187.59436</ele>
        <time>2012-01-26T15:14:27Z</time>
      </trkpt>
      <trkpt lat="44.31519" lon="4.77407">
        <ele>187.11377</ele>
        <time>2012-01-26T15:14:34Z</time>
      </trkpt>
      <trkpt lat="44.31518" lon="4.77413">
        <ele>187.59436</ele>
        <time>2012-01-26T15:14:42Z</time>
      </trkpt>
      <trkpt lat="44.31516" lon="4.77423">
        <ele>187.11377</ele>
        <time>2012-01-26T15:14:52Z</time>
      </trkpt>
      <trkpt lat="44.31516" lon="4.77423">
        <ele>186.633179</ele>
        <time>2012-01-26T15:14:53Z</time>
      </trkpt>
      <trkpt lat="44.3151" lon="4.77432">
        <ele>185.191162</ele>
        <time>2012-01-26T15:15:04Z</time>
      </trkpt>
      <trkpt lat="44.3151" lon="4.77444">
        <ele>186.633179</ele>
        <time>2012-01-26T15:15:18Z</time>
      </trkpt>
      <trkpt lat="44.31505" lon="4.77451">
        <ele>188.075073</ele>
        <time>2012-01-26T15:15:27Z</time>
      </trkpt>
      <trkpt lat="44.31498" lon="4.77458">
        <ele>189.036377</ele>
        <time>2012-01-26T15:15:39Z</time>
      </trkpt>
      <trkpt lat="44.31493" lon="4.77466">
        <ele>190.478394</ele>
        <time>2012-01-26T15:15:52Z</time>
      </trkpt>
      <trkpt lat="44.3149" lon="4.77473">
        <ele>192.401123</ele>
        <time>2012-01-26T15:16:05Z</time>
      </trkpt>
      <trkpt lat="44.31489" lon="4.77479">
        <ele>193.362305</ele>
        <time>2012-01-26T15:16:11Z</time>
      </trkpt>
      <trkpt lat="44.31482" lon="4.77485">
        <ele>192.881714</ele>
        <time>2012-01-26T15:16:23Z</time>
      </trkpt>
      <trkpt lat="44.3148" lon="4.77488">
        <ele>193.362305</ele>
        <time>2012-01-26T15:16:26Z</time>
      </trkpt>
      <trkpt lat="44.31481" lon="4.7749">
        <ele>193.843018</ele>
        <time>2012-01-26T15:16:28Z</time>
      </trkpt>
      <trkpt lat="44.31482" lon="4.77498">
        <ele>196.246338</ele>
        <time>2012-01-26T15:16:40Z</time>
      </trkpt>
      <trkpt lat="44.31479" lon="4.77507">
        <ele>196.246338</ele>
        <time>2012-01-26T15:16:52Z</time>
      </trkpt>
      <trkpt lat="44.3148" lon="4.77507">
        <ele>196.726929</ele>
        <time>2012-01-26T15:17:21Z</time>
      </trkpt>
      <trkpt lat="44.31479" lon="4.77511">
        <ele>196.246338</ele>
        <time>2012-01-26T15:17:38Z</time>
      </trkpt>
      <trkpt lat="44.31479" lon="4.77513">
        <ele>196.246338</ele>
        <time>2012-01-26T15:17:59Z</time>
      </trkpt>
      <trkpt lat="44.31478" lon="4.77512">
        <ele>196.726929</ele>
        <time>2012-01-26T15:18:16Z</time>
      </trkpt>
      <trkpt lat="44.31478" lon="4.77512">
        <ele>196.726929</ele>
        <time>2012-01-26T15:18:21Z</time>
      </trkpt>
      <trkpt lat="44.31478" lon="4.77521">
        <ele>197.688232</ele>
        <time>2012-01-26T15:18:33Z</time>
      </trkpt>
      <trkpt lat="44.3148" lon="4.77534">
        <ele>199.130127</ele>
        <time>2012-01-26T15:18:49Z</time>
      </trkpt>
      <trkpt lat="44.3148" lon="4.77535">
        <ele>199.130127</ele>
        <time>2012-01-26T15:18:52Z</time>
      </trkpt>
      <trkpt lat="44.3148" lon="4.77546">
        <ele>199.130127</ele>
        <time>2012-01-26T15:19:03Z</time>
      </trkpt>
      <trkpt lat="44.31484" lon="4.77555">
        <ele>197.688232</ele>
        <time>2012-01-26T15:19:16Z</time>
      </trkpt>
      <trkpt lat="44.31488" lon="4.77565">
        <ele>196.726929</ele>
        <time>2012-01-26T15:19:31Z</time>
      </trkpt>
      <trkpt lat="44.31492" lon="4.7757">
        <ele>197.688232</ele>
        <time>2012-01-26T15:19:38Z</time>
      </trkpt>
      <trkpt lat="44.31497" lon="4.77571">
        <ele>198.649536</ele>
        <time>2012-01-26T15:19:47Z</time>
      </trkpt>
      <trkpt lat="44.31502" lon="4.77571">
        <ele>201.052856</ele>
        <time>2012-01-26T15:19:58Z</time>
      </trkpt>
      <trkpt lat="44.31505" lon="4.77573">
        <ele>202.494873</ele>
        <time>2012-01-26T15:20:12Z</time>
      </trkpt>
      <trkpt lat="44.31507" lon="4.77574">
        <ele>203.93689</ele>
        <time>2012-01-26T15:20:27Z</time>
      </trkpt>
      <trkpt lat="44.31512" lon="4.77576">
        <ele>205.859497</ele>
        <time>2012-01-26T15:20:42Z</time>
      </trkpt>
      <trkpt lat="44.31515" lon="4.77582">
        <ele>207.301392</ele>
        <time>2012-01-26T15:20:55Z</time>
      </trkpt>
      <trkpt lat="44.31519" lon="4.7759">
        <ele>208.262817</ele>
        <time>2012-01-26T15:21:04Z</time>
      </trkpt>
      <trkpt lat="44.31521" lon="4.77592">
        <ele>209.224121</ele>
        <time>2012-01-26T15:21:27Z</time>
      </trkpt>
      <trkpt lat="44.31523" lon="4.77594">
        <ele>209.224121</ele>
        <time>2012-01-26T15:21:38Z</time>
      </trkpt>
      <trkpt lat="44.31528" lon="4.77595">
        <ele>209.704834</ele>
        <time>2012-01-26T15:21:50Z</time>
      </trkpt>
      <trkpt lat="44.3153" lon="4.77596">
        <ele>211.146729</ele>
        <time>2012-01-26T15:22:11Z</time>
      </trkpt>
      <trkpt lat="44.31529" lon="4.7759">
        <ele>212.108032</ele>
        <time>2012-01-26T15:22:33Z</time>
      </trkpt>
      <trkpt lat="44.31528" lon="4.77588">
        <ele>211.627441</ele>
        <time>2012-01-26T15:22:45Z</time>
      </trkpt>
      <trkpt lat="44.31526" lon="4.77581">
        <ele>212.108032</ele>
        <time>2012-01-26T15:23:00Z</time>
      </trkpt>
      <trkpt lat="44.31521" lon="4.77573">
        <ele>214.51123</ele>
        <time>2012-01-26T15:23:12Z</time>
      </trkpt>
      <trkpt lat="44.31522" lon="4.77569">
        <ele>215.953247</ele>
        <time>2012-01-26T15:23:23Z</time>
      </trkpt>
      <trkpt lat="44.3152" lon="4.77565">
        <ele>216.914673</ele>
        <time>2012-01-26T15:23:30Z</time>
      </trkpt>
      <trkpt lat="44.31519" lon="4.77562">
        <ele>217.395386</ele>
        <time>2012-01-26T15:23:32Z</time>
      </trkpt>
      <trkpt lat="44.31514" lon="4.77561">
        <ele>218.356567</ele>
        <time>2012-01-26T15:23:44Z</time>
      </trkpt>
      <trkpt lat="44.31513" lon="4.7756">
        <ele>218.356567</ele>
        <time>2012-01-26T15:23:52Z</time>
      </trkpt>
      <trkpt lat="44.31511" lon="4.77557">
        <ele>218.83728</ele>
        <time>2012-01-26T15:23:56Z</time>
      </trkpt>
      <trkpt lat="44.31511" lon="4.77551">
        <ele>220.279175</ele>
        <time>2012-01-26T15:24:05Z</time>
      </trkpt>
      <trkpt lat="44.31511" lon="4.77546">
        <ele>220.759888</ele>
        <time>2012-01-26T15:24:17Z</time>
      </trkpt>
      <trkpt lat="44.31515" lon="4.77545">
        <ele>221.721191</ele>
        <time>2012-01-26T15:24:30Z</time>
      </trkpt>
      <trkpt lat="44.31515" lon="4.77542">
        <ele>222.682495</ele>
        <time>2012-01-26T15:24:43Z</time>
      </trkpt>
      <trkpt lat="44.31518" lon="4.77541">
        <ele>223.163208</ele>
        <time>2012-01-26T15:24:47Z</time>
      </trkpt>
      <trkpt lat="44.31525" lon="4.77537">
        <ele>225.566528</ele>
        <time>2012-01-26T15:24:58Z</time>
      </trkpt>
      <trkpt lat="44.31527" lon="4.77539">
        <ele>226.047119</ele>
        <time>2012-01-26T15:25:01Z</time>
      </trkpt>
      <trkpt lat="44.31534" lon="4.77537">
        <ele>228.931152</ele>
        <time>2012-01-26T15:25:13Z</time>
      </trkpt>
      <trkpt lat="44.3154" lon="4.77532">
        <ele>231.814941</ele>
        <time>2012-01-26T15:25:24Z</time>
      </trkpt>
      <trkpt lat="44.31543" lon="4.77526">
        <ele>233.737671</ele>
        <time>2012-01-26T15:25:34Z</time>
      </trkpt>
      <trkpt lat="44.31546" lon="4.77525">
        <ele>234.218384</ele>
        <time>2012-01-26T15:26:01Z</time>
      </trkpt>
      <trkpt lat="44.31548" lon="4.77528">
        <ele>236.140991</ele>
        <time>2012-01-26T15:26:19Z</time>
      </trkpt>
      <trkpt lat="44.31548" lon="4.77528">
        <ele>235.660278</ele>
        <time>2012-01-26T15:27:33Z</time>
      </trkpt>
      <trkpt lat="44.31547" lon="4.77527">
        <ele>235.660278</ele>
        <time>2012-01-26T15:28:15Z</time>
      </trkpt>
      <trkpt lat="44.31554" lon="4.77521">
        <ele>236.140991</ele>
        <time>2012-01-26T15:28:31Z</time>
      </trkpt>
      <trkpt lat="44.31556" lon="4.7752">
        <ele>236.621704</ele>
        <time>2012-01-26T15:28:35Z</time>
      </trkpt>
      <trkpt lat="44.31565" lon="4.77525">
        <ele>238.063599</ele>
        <time>2012-01-26T15:28:48Z</time>
      </trkpt>
      <trkpt lat="44.31568" lon="4.77528">
        <ele>239.505493</ele>
        <time>2012-01-26T15:28:59Z</time>
      </trkpt>
      <trkpt lat="44.31572" lon="4.77537">
        <ele>240.947632</ele>
        <time>2012-01-26T15:29:13Z</time>
      </trkpt>
      <trkpt lat="44.31577" lon="4.77542">
        <ele>242.389648</ele>
        <time>2012-01-26T15:29:25Z</time>
      </trkpt>
      <trkpt lat="44.31577" lon="4.77544">
        <ele>242.870239</ele>
        <time>2012-01-26T15:29:36Z</time>
      </trkpt>
      <trkpt lat="44.31577" lon="4.77541">
        <ele>242.870239</ele>
        <time>2012-01-26T15:29:51Z</time>
      </trkpt>
      <trkpt lat="44.31577" lon="4.77541">
        <ele>242.870239</ele>
        <time>2012-01-26T15:30:55Z</time>
      </trkpt>
      <trkpt lat="44.31578" lon="4.77545">
        <ele>242.870239</ele>
        <time>2012-01-26T15:31:40Z</time>
      </trkpt>
      <trkpt lat="44.31578" lon="4.77544">
        <ele>242.870239</ele>
        <time>2012-01-26T15:31:55Z</time>
      </trkpt>
      <trkpt lat="44.31578" lon="4.77542">
        <ele>242.870239</ele>
        <time>2012-01-26T15:32:15Z</time>
      </trkpt>
      <trkpt lat="44.3158" lon="4.77545">
        <ele>242.870239</ele>
        <time>2012-01-26T15:32:40Z</time>
      </trkpt>
      <trkpt lat="44.31579" lon="4.77545">
        <ele>242.870239</ele>
        <time>2012-01-26T15:33:05Z</time>
      </trkpt>
      <trkpt lat="44.31581" lon="4.77544">
        <ele>242.870239</ele>
        <time>2012-01-26T15:33:22Z</time>
      </trkpt>
      <trkpt lat="44.31581" lon="4.77543">
        <ele>242.389648</ele>
        <time>2012-01-26T15:33:34Z</time>
      </trkpt>
      <trkpt lat="44.31581" lon="4.77544">
        <ele>242.870239</ele>
        <time>2012-01-26T15:33:49Z</time>
      </trkpt>
      <trkpt lat="44.31581" lon="4.77542">
        <ele>242.389648</ele>
        <time>2012-01-26T15:34:12Z</time>
      </trkpt>
      <trkpt lat="44.3158" lon="4.77542">
        <ele>242.389648</ele>
        <time>2012-01-26T15:34:52Z</time>
      </trkpt>
      <trkpt lat="44.3158" lon="4.77542">
        <ele>241.908936</ele>
        <time>2012-01-26T15:36:22Z</time>
      </trkpt>
      <trkpt lat="44.31588" lon="4.77548">
        <ele>242.870239</ele>
        <time>2012-01-26T15:37:29Z</time>
      </trkpt>
      <trkpt lat="44.3159" lon="4.77548">
        <ele>242.870239</ele>
        <time>2012-01-26T15:37:31Z</time>
      </trkpt>
      <trkpt lat="44.31598" lon="4.77557">
        <ele>242.870239</ele>
        <time>2012-01-26T15:37:44Z</time>
      </trkpt>
      <trkpt lat="44.31611" lon="4.7757">
        <ele>243.35083</ele>
        <time>2012-01-26T15:38:03Z</time>
      </trkpt>
      <trkpt lat="44.31622" lon="4.77567">
        <ele>245.75415</ele>
        <time>2012-01-26T15:38:21Z</time>
      </trkpt>
      <trkpt lat="44.31631" lon="4.77561">
        <ele>246.715454</ele>
        <time>2012-01-26T15:38:36Z</time>
      </trkpt>
      <trkpt lat="44.3164" lon="4.77562">
        <ele>247.676758</ele>
        <time>2012-01-26T15:38:50Z</time>
      </trkpt>
      <trkpt lat="44.31641" lon="4.77566">
        <ele>247.196045</ele>
        <time>2012-01-26T15:39:05Z</time>
      </trkpt>
      <trkpt lat="44.31648" lon="4.77574">
        <ele>246.715454</ele>
        <time>2012-01-26T15:39:20Z</time>
      </trkpt>
      <trkpt lat="44.31656" lon="4.77586">
        <ele>246.234863</ele>
        <time>2012-01-26T15:39:37Z</time>
      </trkpt>
      <trkpt lat="44.31659" lon="4.77589">
        <ele>246.234863</ele>
        <time>2012-01-26T15:39:42Z</time>
      </trkpt>
      <trkpt lat="44.31669" lon="4.77597">
        <ele>246.715454</ele>
        <time>2012-01-26T15:39:54Z</time>
      </trkpt>
      <trkpt lat="44.3167" lon="4.776">
        <ele>246.234863</ele>
        <time>2012-01-26T15:39:58Z</time>
      </trkpt>
      <trkpt lat="44.31682" lon="4.77617">
        <ele>245.75415</ele>
        <time>2012-01-26T15:40:16Z</time>
      </trkpt>
      <trkpt lat="44.31694" lon="4.77638">
        <ele>245.273438</ele>
        <time>2012-01-26T15:40:33Z</time>
      </trkpt>
      <trkpt lat="44.31695" lon="4.7764">
        <ele>244.792847</ele>
        <time>2012-01-26T15:40:35Z</time>
      </trkpt>
      <trkpt lat="44.31696" lon="4.77645">
        <ele>244.792847</ele>
        <time>2012-01-26T15:40:39Z</time>
      </trkpt>
      <trkpt lat="44.31707" lon="4.77657">
        <ele>244.792847</ele>
        <time>2012-01-26T15:40:55Z</time>
      </trkpt>
      <trkpt lat="44.31723" lon="4.77664">
        <ele>243.831543</ele>
        <time>2012-01-26T15:41:12Z</time>
      </trkpt>
      <trkpt lat="44.31729" lon="4.77675">
        <ele>243.35083</ele>
        <time>2012-01-26T15:41:22Z</time>
      </trkpt>
      <trkpt lat="44.31734" lon="4.77681">
        <ele>242.870239</ele>
        <time>2012-01-26T15:41:30Z</time>
      </trkpt>
      <trkpt lat="44.31741" lon="4.77692">
        <ele>242.870239</ele>
        <time>2012-01-26T15:41:43Z</time>
      </trkpt>
      <trkpt lat="44.31746" lon="4.77695">
        <ele>242.389648</ele>
        <time>2012-01-26T15:41:51Z</time>
      </trkpt>
      <trkpt lat="44.31758" lon="4.77705">
        <ele>241.908936</ele>
        <time>2012-01-26T15:42:08Z</time>
      </trkpt>
      <trkpt lat="44.31777" lon="4.77716">
        <ele>240.947632</ele>
        <time>2012-01-26T15:42:28Z</time>
      </trkpt>
      <trkpt lat="44.31794" lon="4.77727">
        <ele>240.467041</ele>
        <time>2012-01-26T15:42:47Z</time>
      </trkpt>
      <trkpt lat="44.31799" lon="4.7773">
        <ele>239.986206</ele>
        <time>2012-01-26T15:42:53Z</time>
      </trkpt>
      <trkpt lat="44.3181" lon="4.77742">
        <ele>239.505493</ele>
        <time>2012-01-26T15:43:07Z</time>
      </trkpt>
      <trkpt lat="44.3182" lon="4.7775">
        <ele>239.024902</ele>
        <time>2012-01-26T15:43:20Z</time>
      </trkpt>
      <trkpt lat="44.31826" lon="4.77752">
        <ele>238.544312</ele>
        <time>2012-01-26T15:43:29Z</time>
      </trkpt>
      <trkpt lat="44.31829" lon="4.77754">
        <ele>238.544312</ele>
        <time>2012-01-26T15:43:32Z</time>
      </trkpt>
      <trkpt lat="44.31835" lon="4.77756">
        <ele>239.024902</ele>
        <time>2012-01-26T15:43:37Z</time>
      </trkpt>
      <trkpt lat="44.31839" lon="4.77755">
        <ele>238.544312</ele>
        <time>2012-01-26T15:43:43Z</time>
      </trkpt>
      <trkpt lat="44.31848" lon="4.77765">
        <ele>237.102295</ele>
        <time>2012-01-26T15:43:58Z</time>
      </trkpt>
      <trkpt lat="44.31848" lon="4.77766">
        <ele>236.621704</ele>
        <time>2012-01-26T15:44:01Z</time>
      </trkpt>
      <trkpt lat="44.31844" lon="4.7778">
        <ele>236.140991</ele>
        <time>2012-01-26T15:44:14Z</time>
      </trkpt>
      <trkpt lat="44.31844" lon="4.77782">
        <ele>236.140991</ele>
        <time>2012-01-26T15:44:16Z</time>
      </trkpt>
      <trkpt lat="44.31845" lon="4.77787">
        <ele>236.140991</ele>
        <time>2012-01-26T15:44:21Z</time>
      </trkpt>
      <trkpt lat="44.31845" lon="4.77798">
        <ele>234.699097</ele>
        <time>2012-01-26T15:44:34Z</time>
      </trkpt>
      <trkpt lat="44.31845" lon="4.77812">
        <ele>234.218384</ele>
        <time>2012-01-26T15:44:47Z</time>
      </trkpt>
      <trkpt lat="44.31846" lon="4.77815">
        <ele>234.218384</ele>
        <time>2012-01-26T15:44:49Z</time>
      </trkpt>
      <trkpt lat="44.3185" lon="4.77819">
        <ele>234.218384</ele>
        <time>2012-01-26T15:44:53Z</time>
      </trkpt>
      <trkpt lat="44.31848" lon="4.77828">
        <ele>233.737671</ele>
        <time>2012-01-26T15:44:58Z</time>
      </trkpt>
      <trkpt lat="44.3185" lon="4.77839">
        <ele>233.25708</ele>
        <time>2012-01-26T15:45:09Z</time>
      </trkpt>
      <trkpt lat="44.31849" lon="4.77841">
        <ele>233.25708</ele>
        <time>2012-01-26T15:45:10Z</time>
      </trkpt>
      <trkpt lat="44.31854" lon="4.7786">
        <ele>232.295776</ele>
        <time>2012-01-26T15:45:26Z</time>
      </trkpt>
      <trkpt lat="44.31855" lon="4.77863">
        <ele>232.295776</ele>
        <time>2012-01-26T15:45:28Z</time>
      </trkpt>
      <trkpt lat="44.31855" lon="4.77867">
        <ele>232.295776</ele>
        <time>2012-01-26T15:45:32Z</time>
      </trkpt>
      <trkpt lat="44.31861" lon="4.77883">
        <ele>231.814941</ele>
        <time>2012-01-26T15:45:43Z</time>
      </trkpt>
      <trkpt lat="44.31863" lon="4.77887">
        <ele>231.814941</ele>
        <time>2012-01-26T15:45:46Z</time>
      </trkpt>
      <trkpt lat="44.31864" lon="4.77889">
        <ele>231.334351</ele>
        <time>2012-01-26T15:45:49Z</time>
      </trkpt>
      <trkpt lat="44.31865" lon="4.77894">
        <ele>230.85376</ele>
        <time>2012-01-26T15:45:53Z</time>
      </trkpt>
      <trkpt lat="44.31866" lon="4.77897">
        <ele>231.334351</ele>
        <time>2012-01-26T15:45:56Z</time>
      </trkpt>
      <trkpt lat="44.31874" lon="4.77905">
        <ele>230.373047</ele>
        <time>2012-01-26T15:46:06Z</time>
      </trkpt>
      <trkpt lat="44.3188" lon="4.77915">
        <ele>228.931152</ele>
        <time>2012-01-26T15:46:21Z</time>
      </trkpt>
      <trkpt lat="44.31886" lon="4.77923">
        <ele>228.450439</ele>
        <time>2012-01-26T15:46:28Z</time>
      </trkpt>
      <trkpt lat="44.31891" lon="4.77934">
        <ele>228.450439</ele>
        <time>2012-01-26T15:46:40Z</time>
      </trkpt>
      <trkpt lat="44.31893" lon="4.77936">
        <ele>228.450439</ele>
        <time>2012-01-26T15:46:42Z</time>
      </trkpt>
      <trkpt lat="44.31895" lon="4.77938">
        <ele>227.489136</ele>
        <time>2012-01-26T15:46:44Z</time>
      </trkpt>
      <trkpt lat="44.319" lon="4.77949">
        <ele>227.489136</ele>
        <time>2012-01-26T15:46:53Z</time>
      </trkpt>
      <trkpt lat="44.31909" lon="4.77962">
        <ele>227.008545</ele>
        <time>2012-01-26T15:47:06Z</time>
      </trkpt>
      <trkpt lat="44.31921" lon="4.77961">
        <ele>227.969727</ele>
        <time>2012-01-26T15:47:20Z</time>
      </trkpt>
      <trkpt lat="44.31933" lon="4.77966">
        <ele>228.931152</ele>
        <time>2012-01-26T15:47:34Z</time>
      </trkpt>
      <trkpt lat="44.3194" lon="4.77965">
        <ele>228.931152</ele>
        <time>2012-01-26T15:47:42Z</time>
      </trkpt>
      <trkpt lat="44.31951" lon="4.77969">
        <ele>229.411743</ele>
        <time>2012-01-26T15:47:55Z</time>
      </trkpt>
      <trkpt lat="44.31962" lon="4.77969">
        <ele>229.411743</ele>
        <time>2012-01-26T15:48:07Z</time>
      </trkpt>
      <trkpt lat="44.31971" lon="4.77974">
        <ele>228.931152</ele>
        <time>2012-01-26T15:48:21Z</time>
      </trkpt>
      <trkpt lat="44.31991" lon="4.77988">
        <ele>227.969727</ele>
        <time>2012-01-26T15:48:41Z</time>
      </trkpt>
      <trkpt lat="44.32004" lon="4.77993">
        <ele>227.008545</ele>
        <time>2012-01-26T15:48:54Z</time>
      </trkpt>
      <trkpt lat="44.32005" lon="4.77993">
        <ele>227.008545</ele>
        <time>2012-01-26T15:48:55Z</time>
      </trkpt>
      <trkpt lat="44.32016" lon="4.77994">
        <ele>227.008545</ele>
        <time>2012-01-26T15:49:04Z</time>
      </trkpt>
      <trkpt lat="44.32018" lon="4.77996">
        <ele>227.008545</ele>
        <time>2012-01-26T15:49:07Z</time>
      </trkpt>
      <trkpt lat="44.32021" lon="4.78">
        <ele>227.008545</ele>
        <time>2012-01-26T15:49:11Z</time>
      </trkpt>
      <trkpt lat="44.32038" lon="4.77996">
        <ele>226.527832</ele>
        <time>2012-01-26T15:49:28Z</time>
      </trkpt>
      <trkpt lat="44.3204" lon="4.78001">
        <ele>226.527832</ele>
        <time>2012-01-26T15:49:50Z</time>
      </trkpt>
      <trkpt lat="44.32045" lon="4.78002">
        <ele>226.047119</ele>
        <time>2012-01-26T15:50:09Z</time>
      </trkpt>
      <trkpt lat="44.32054" lon="4.78004">
        <ele>225.566528</ele>
        <time>2012-01-26T15:50:21Z</time>
      </trkpt>
      <trkpt lat="44.32058" lon="4.78005">
        <ele>225.566528</ele>
        <time>2012-01-26T15:50:26Z</time>
      </trkpt>
      <trkpt lat="44.32068" lon="4.78008">
        <ele>225.566528</ele>
        <time>2012-01-26T15:50:38Z</time>
      </trkpt>
      <trkpt lat="44.32073" lon="4.78007">
        <ele>224.605225</ele>
        <time>2012-01-26T15:50:45Z</time>
      </trkpt>
      <trkpt lat="44.32081" lon="4.78007">
        <ele>223.643799</ele>
        <time>2012-01-26T15:50:55Z</time>
      </trkpt>
      <trkpt lat="44.32088" lon="4.78013">
        <ele>223.643799</ele>
        <time>2012-01-26T15:51:06Z</time>
      </trkpt>
      <trkpt lat="44.32093" lon="4.7802">
        <ele>222.201782</ele>
        <time>2012-01-26T15:51:17Z</time>
      </trkpt>
      <trkpt lat="44.32097" lon="4.78031">
        <ele>220.759888</ele>
        <time>2012-01-26T15:51:29Z</time>
      </trkpt>
      <trkpt lat="44.32101" lon="4.78037">
        <ele>219.317993</ele>
        <time>2012-01-26T15:51:36Z</time>
      </trkpt>
      <trkpt lat="44.32105" lon="4.78041">
        <ele>219.317993</ele>
        <time>2012-01-26T15:51:45Z</time>
      </trkpt>
      <trkpt lat="44.32108" lon="4.7804">
        <ele>218.83728</ele>
        <time>2012-01-26T15:51:49Z</time>
      </trkpt>
      <trkpt lat="44.32117" lon="4.78042">
        <ele>217.395386</ele>
        <time>2012-01-26T15:52:00Z</time>
      </trkpt>
      <trkpt lat="44.32124" lon="4.78044">
        <ele>217.875977</ele>
        <time>2012-01-26T15:52:06Z</time>
      </trkpt>
      <trkpt lat="44.32134" lon="4.78043">
        <ele>215.953247</ele>
        <time>2012-01-26T15:52:18Z</time>
      </trkpt>
      <trkpt lat="44.32147" lon="4.78047">
        <ele>216.43396</ele>
        <time>2012-01-26T15:52:30Z</time>
      </trkpt>
      <trkpt lat="44.32148" lon="4.78045">
        <ele>215.472656</ele>
        <time>2012-01-26T15:52:33Z</time>
      </trkpt>
      <trkpt lat="44.32151" lon="4.78044">
        <ele>215.953247</ele>
        <time>2012-01-26T15:52:36Z</time>
      </trkpt>
      <trkpt lat="44.32165" lon="4.78044">
        <ele>214.991943</ele>
        <time>2012-01-26T15:52:49Z</time>
      </trkpt>
      <trkpt lat="44.32172" lon="4.78047">
        <ele>214.51123</ele>
        <time>2012-01-26T15:52:55Z</time>
      </trkpt>
      <trkpt lat="44.32182" lon="4.78053">
        <ele>214.51123</ele>
        <time>2012-01-26T15:53:05Z</time>
      </trkpt>
      <trkpt lat="44.32197" lon="4.78062">
        <ele>214.03064</ele>
        <time>2012-01-26T15:53:20Z</time>
      </trkpt>
      <trkpt lat="44.32202" lon="4.78064">
        <ele>214.51123</ele>
        <time>2012-01-26T15:53:26Z</time>
      </trkpt>
      <trkpt lat="44.32207" lon="4.78066">
        <ele>214.03064</ele>
        <time>2012-01-26T15:53:30Z</time>
      </trkpt>
      <trkpt lat="44.32219" lon="4.78072">
        <ele>214.03064</ele>
        <time>2012-01-26T15:53:42Z</time>
      </trkpt>
      <trkpt lat="44.32229" lon="4.78074">
        <ele>213.069336</ele>
        <time>2012-01-26T15:53:53Z</time>
      </trkpt>
      <trkpt lat="44.32237" lon="4.78073">
        <ele>213.069336</ele>
        <time>2012-01-26T15:54:01Z</time>
      </trkpt>
      <trkpt lat="44.3224" lon="4.78074">
        <ele>213.550049</ele>
        <time>2012-01-26T15:54:03Z</time>
      </trkpt>
      <trkpt lat="44.32241" lon="4.78078">
        <ele>213.550049</ele>
        <time>2012-01-26T15:54:07Z</time>
      </trkpt>
      <trkpt lat="44.32241" lon="4.78085">
        <ele>213.550049</ele>
        <time>2012-01-26T15:54:15Z</time>
      </trkpt>
      <trkpt lat="44.32241" lon="4.78091">
        <ele>213.550049</ele>
        <time>2012-01-26T15:54:21Z</time>
      </trkpt>
      <trkpt lat="44.32243" lon="4.78092">
        <ele>213.550049</ele>
        <time>2012-01-26T15:54:25Z</time>
      </trkpt>
      <trkpt lat="44.32242" lon="4.78099">
        <ele>213.069336</ele>
        <time>2012-01-26T15:54:37Z</time>
      </trkpt>
      <trkpt lat="44.32242" lon="4.78099">
        <ele>213.550049</ele>
        <time>2012-01-26T15:54:55Z</time>
      </trkpt>
      <trkpt lat="44.3224" lon="4.781">
        <ele>213.550049</ele>
        <time>2012-01-26T15:55:19Z</time>
      </trkpt>
      <trkpt lat="44.32241" lon="4.78101">
        <ele>213.550049</ele>
        <time>2012-01-26T15:55:47Z</time>
      </trkpt>
      <trkpt lat="44.3224" lon="4.78102">
        <ele>213.069336</ele>
        <time>2012-01-26T15:56:07Z</time>
      </trkpt>
      <trkpt lat="44.32234" lon="4.7811">
        <ele>212.588623</ele>
        <time>2012-01-26T15:56:16Z</time>
      </trkpt>
      <trkpt lat="44.32233" lon="4.78119">
        <ele>213.069336</ele>
        <time>2012-01-26T15:56:20Z</time>
      </trkpt>
      <trkpt lat="44.32231" lon="4.78126">
        <ele>213.069336</ele>
        <time>2012-01-26T15:56:25Z</time>
      </trkpt>
      <trkpt lat="44.32226" lon="4.78139">
        <ele>212.588623</ele>
        <time>2012-01-26T15:56:35Z</time>
      </trkpt>
      <trkpt lat="44.32221" lon="4.78154">
        <ele>212.108032</ele>
        <time>2012-01-26T15:56:46Z</time>
      </trkpt>
      <trkpt lat="44.32219" lon="4.78158">
        <ele>212.108032</ele>
        <time>2012-01-26T15:56:48Z</time>
      </trkpt>
      <trkpt lat="44.32211" lon="4.78175">
        <ele>212.588623</ele>
        <time>2012-01-26T15:57:02Z</time>
      </trkpt>
      <trkpt lat="44.32211" lon="4.78176">
        <ele>212.108032</ele>
        <time>2012-01-26T15:57:03Z</time>
      </trkpt>
      <trkpt lat="44.32207" lon="4.78184">
        <ele>211.627441</ele>
        <time>2012-01-26T15:57:11Z</time>
      </trkpt>
      <trkpt lat="44.32205" lon="4.78194">
        <ele>211.627441</ele>
        <time>2012-01-26T15:57:18Z</time>
      </trkpt>
      <trkpt lat="44.32204" lon="4.78199">
        <ele>211.627441</ele>
        <time>2012-01-26T15:57:21Z</time>
      </trkpt>
      <trkpt lat="44.32201" lon="4.78206">
        <ele>211.146729</ele>
        <time>2012-01-26T15:57:28Z</time>
      </trkpt>
      <trkpt lat="44.32196" lon="4.78216">
        <ele>211.146729</ele>
        <time>2012-01-26T15:57:36Z</time>
      </trkpt>
      <trkpt lat="44.32194" lon="4.78221">
        <ele>211.627441</ele>
        <time>2012-01-26T15:57:40Z</time>
      </trkpt>
      <trkpt lat="44.32189" lon="4.78233">
        <ele>213.069336</ele>
        <time>2012-01-26T15:57:51Z</time>
      </trkpt>
      <trkpt lat="44.3219" lon="4.78248">
        <ele>213.550049</ele>
        <time>2012-01-26T15:57:57Z</time>
      </trkpt>
      <trkpt lat="44.32188" lon="4.78258">
        <ele>214.03064</ele>
        <time>2012-01-26T15:58:06Z</time>
      </trkpt>
      <trkpt lat="44.32175" lon="4.78272">
        <ele>213.550049</ele>
        <time>2012-01-26T15:58:24Z</time>
      </trkpt>
      <trkpt lat="44.32165" lon="4.78278">
        <ele>213.550049</ele>
        <time>2012-01-26T15:58:36Z</time>
      </trkpt>
      <trkpt lat="44.32164" lon="4.78279">
        <ele>213.069336</ele>
        <time>2012-01-26T15:58:46Z</time>
      </trkpt>
      <trkpt lat="44.32158" lon="4.78271">
        <ele>213.550049</ele>
        <time>2012-01-26T15:58:56Z</time>
      </trkpt>
      <trkpt lat="44.32152" lon="4.78264">
        <ele>213.550049</ele>
        <time>2012-01-26T15:59:12Z</time>
      </trkpt>
      <trkpt lat="44.32143" lon="4.78254">
        <ele>214.03064</ele>
        <time>2012-01-26T15:59:30Z</time>
      </trkpt>
      <trkpt lat="44.32142" lon="4.78251">
        <ele>214.51123</ele>
        <time>2012-01-26T15:59:37Z</time>
      </trkpt>
      <trkpt lat="44.32147" lon="4.78257">
        <ele>214.03064</ele>
        <time>2012-01-26T15:59:51Z</time>
      </trkpt>
      <trkpt lat="44.32147" lon="4.78257">
        <ele>214.03064</ele>
        <time>2012-01-26T15:59:54Z</time>
      </trkpt>
      <trkpt lat="44.32139" lon="4.78241">
        <ele>214.991943</ele>
        <time>2012-01-26T16:00:08Z</time>
      </trkpt>
      <trkpt lat="44.32136" lon="4.78238">
        <ele>215.472656</ele>
        <time>2012-01-26T16:00:13Z</time>
      </trkpt>
      <trkpt lat="44.32131" lon="4.78229">
        <ele>215.953247</ele>
        <time>2012-01-26T16:00:20Z</time>
      </trkpt>
      <trkpt lat="44.32116" lon="4.78225">
        <ele>216.43396</ele>
        <time>2012-01-26T16:00:38Z</time>
      </trkpt>
      <trkpt lat="44.32113" lon="4.78224">
        <ele>216.43396</ele>
        <time>2012-01-26T16:00:41Z</time>
      </trkpt>
      <trkpt lat="44.32106" lon="4.78223">
        <ele>216.914673</ele>
        <time>2012-01-26T16:00:55Z</time>
      </trkpt>
      <trkpt lat="44.32103" lon="4.78229">
        <ele>214.991943</ele>
        <time>2012-01-26T16:01:09Z</time>
      </trkpt>
      <trkpt lat="44.321" lon="4.78234">
        <ele>213.550049</ele>
        <time>2012-01-26T16:01:18Z</time>
      </trkpt>
      <trkpt lat="44.32097" lon="4.78237">
        <ele>211.146729</ele>
        <time>2012-01-26T16:01:30Z</time>
      </trkpt>
      <trkpt lat="44.32094" lon="4.78236">
        <ele>210.666016</ele>
        <time>2012-01-26T16:01:48Z</time>
      </trkpt>
      <trkpt lat="44.32084" lon="4.78231">
        <ele>208.262817</ele>
        <time>2012-01-26T16:02:03Z</time>
      </trkpt>
      <trkpt lat="44.3208" lon="4.78229">
        <ele>208.262817</ele>
        <time>2012-01-26T16:02:08Z</time>
      </trkpt>
      <trkpt lat="44.32078" lon="4.78228">
        <ele>208.262817</ele>
        <time>2012-01-26T16:02:10Z</time>
      </trkpt>
      <trkpt lat="44.32074" lon="4.78227">
        <ele>207.782104</ele>
        <time>2012-01-26T16:02:18Z</time>
      </trkpt>
      <trkpt lat="44.32069" lon="4.7824">
        <ele>206.820679</ele>
        <time>2012-01-26T16:02:31Z</time>
      </trkpt>
      <trkpt lat="44.32068" lon="4.78241">
        <ele>206.820679</ele>
        <time>2012-01-26T16:02:32Z</time>
      </trkpt>
      <trkpt lat="44.32058" lon="4.78248">
        <ele>208.743408</ele>
        <time>2012-01-26T16:02:48Z</time>
      </trkpt>
      <trkpt lat="44.32047" lon="4.7825">
        <ele>211.627441</ele>
        <time>2012-01-26T16:03:01Z</time>
      </trkpt>
      <trkpt lat="44.32045" lon="4.78261">
        <ele>211.627441</ele>
        <time>2012-01-26T16:03:14Z</time>
      </trkpt>
      <trkpt lat="44.32044" lon="4.7827">
        <ele>212.588623</ele>
        <time>2012-01-26T16:03:29Z</time>
      </trkpt>
      <trkpt lat="44.32044" lon="4.7827">
        <ele>212.588623</ele>
        <time>2012-01-26T16:03:50Z</time>
      </trkpt>
      <trkpt lat="44.32043" lon="4.7827">
        <ele>212.588623</ele>
        <time>2012-01-26T16:03:59Z</time>
      </trkpt>
      <trkpt lat="44.32035" lon="4.78272">
        <ele>213.550049</ele>
        <time>2012-01-26T16:04:11Z</time>
      </trkpt>
      <trkpt lat="44.32033" lon="4.78272">
        <ele>213.069336</ele>
        <time>2012-01-26T16:04:14Z</time>
      </trkpt>
      <trkpt lat="44.32024" lon="4.78271">
        <ele>213.069336</ele>
        <time>2012-01-26T16:04:24Z</time>
      </trkpt>
      <trkpt lat="44.32016" lon="4.78271">
        <ele>212.588623</ele>
        <time>2012-01-26T16:04:31Z</time>
      </trkpt>
      <trkpt lat="44.32009" lon="4.78272">
        <ele>212.108032</ele>
        <time>2012-01-26T16:04:38Z</time>
      </trkpt>
      <trkpt lat="44.32005" lon="4.78267">
        <ele>211.627441</ele>
        <time>2012-01-26T16:04:42Z</time>
      </trkpt>
      <trkpt lat="44.32" lon="4.78265">
        <ele>211.627441</ele>
        <time>2012-01-26T16:04:47Z</time>
      </trkpt>
      <trkpt lat="44.31994" lon="4.78266">
        <ele>212.108032</ele>
        <time>2012-01-26T16:04:52Z</time>
      </trkpt>
      <trkpt lat="44.31992" lon="4.78265">
        <ele>212.108032</ele>
        <time>2012-01-26T16:04:55Z</time>
      </trkpt>
      <trkpt lat="44.3198" lon="4.7827">
        <ele>211.627441</ele>
        <time>2012-01-26T16:05:08Z</time>
      </trkpt>
      <trkpt lat="44.31968" lon="4.78279">
        <ele>212.588623</ele>
        <time>2012-01-26T16:05:26Z</time>
      </trkpt>
      <trkpt lat="44.31966" lon="4.78279">
        <ele>212.588623</ele>
        <time>2012-01-26T16:05:29Z</time>
      </trkpt>
      <trkpt lat="44.31963" lon="4.7828">
        <ele>212.588623</ele>
        <time>2012-01-26T16:05:32Z</time>
      </trkpt>
      <trkpt lat="44.31959" lon="4.78278">
        <ele>213.069336</ele>
        <time>2012-01-26T16:05:36Z</time>
      </trkpt>
      <trkpt lat="44.3195" lon="4.78278">
        <ele>213.550049</ele>
        <time>2012-01-26T16:05:55Z</time>
      </trkpt>
      <trkpt lat="44.31954" lon="4.78293">
        <ele>213.069336</ele>
        <time>2012-01-26T16:06:11Z</time>
      </trkpt>
      <trkpt lat="44.31951" lon="4.78311">
        <ele>212.588623</ele>
        <time>2012-01-26T16:06:25Z</time>
      </trkpt>
      <trkpt lat="44.31944" lon="4.78316">
        <ele>211.627441</ele>
        <time>2012-01-26T16:06:33Z</time>
      </trkpt>
      <trkpt lat="44.31933" lon="4.78316">
        <ele>210.185425</ele>
        <time>2012-01-26T16:06:46Z</time>
      </trkpt>
      <trkpt lat="44.31933" lon="4.78315">
        <ele>210.185425</ele>
        <time>2012-01-26T16:06:54Z</time>
      </trkpt>
      <trkpt lat="44.31929" lon="4.78326">
        <ele>209.224121</ele>
        <time>2012-01-26T16:07:05Z</time>
      </trkpt>
      <trkpt lat="44.31929" lon="4.78331">
        <ele>209.224121</ele>
        <time>2012-01-26T16:07:09Z</time>
      </trkpt>
      <trkpt lat="44.31924" lon="4.78343">
        <ele>207.782104</ele>
        <time>2012-01-26T16:07:23Z</time>
      </trkpt>
      <trkpt lat="44.31923" lon="4.78344">
        <ele>207.782104</ele>
        <time>2012-01-26T16:07:25Z</time>
      </trkpt>
      <trkpt lat="44.31922" lon="4.78347">
        <ele>207.301392</ele>
        <time>2012-01-26T16:07:28Z</time>
      </trkpt>
      <trkpt lat="44.3192" lon="4.78356">
        <ele>206.820679</ele>
        <time>2012-01-26T16:07:35Z</time>
      </trkpt>
      <trkpt lat="44.31915" lon="4.78367">
        <ele>206.340088</ele>
        <time>2012-01-26T16:07:46Z</time>
      </trkpt>
      <trkpt lat="44.31908" lon="4.78378">
        <ele>205.378784</ele>
        <time>2012-01-26T16:07:56Z</time>
      </trkpt>
      <trkpt lat="44.31907" lon="4.78379">
        <ele>205.378784</ele>
        <time>2012-01-26T16:07:57Z</time>
      </trkpt>
      <trkpt lat="44.31908" lon="4.78391">
        <ele>204.41748</ele>
        <time>2012-01-26T16:08:08Z</time>
      </trkpt>
      <trkpt lat="44.31906" lon="4.78403">
        <ele>204.41748</ele>
        <time>2012-01-26T16:08:19Z</time>
      </trkpt>
      <trkpt lat="44.31906" lon="4.78406">
        <ele>203.93689</ele>
        <time>2012-01-26T16:08:23Z</time>
      </trkpt>
      <trkpt lat="44.31902" lon="4.78419">
        <ele>203.456177</ele>
        <time>2012-01-26T16:08:35Z</time>
      </trkpt>
      <trkpt lat="44.31901" lon="4.78422">
        <ele>203.456177</ele>
        <time>2012-01-26T16:08:37Z</time>
      </trkpt>
      <trkpt lat="44.31898" lon="4.78434">
        <ele>202.494873</ele>
        <time>2012-01-26T16:08:46Z</time>
      </trkpt>
      <trkpt lat="44.31898" lon="4.78436">
        <ele>202.975464</ele>
        <time>2012-01-26T16:08:48Z</time>
      </trkpt>
      <trkpt lat="44.31902" lon="4.78452">
        <ele>202.014282</ele>
        <time>2012-01-26T16:08:58Z</time>
      </trkpt>
      <trkpt lat="44.31904" lon="4.7846">
        <ele>201.533569</ele>
        <time>2012-01-26T16:09:06Z</time>
      </trkpt>
      <trkpt lat="44.31906" lon="4.78457">
        <ele>201.052856</ele>
        <time>2012-01-26T16:09:28Z</time>
      </trkpt>
      <trkpt lat="44.31906" lon="4.78457">
        <ele>201.052856</ele>
        <time>2012-01-26T16:09:37Z</time>
      </trkpt>
      <trkpt lat="44.31913" lon="4.78455">
        <ele>200.091675</ele>
        <time>2012-01-26T16:09:48Z</time>
      </trkpt>
      <trkpt lat="44.31914" lon="4.78451">
        <ele>199.61084</ele>
        <time>2012-01-26T16:09:52Z</time>
      </trkpt>
      <trkpt lat="44.31918" lon="4.78448">
        <ele>198.649536</ele>
        <time>2012-01-26T16:09:57Z</time>
      </trkpt>
      <trkpt lat="44.31931" lon="4.78437">
        <ele>196.246338</ele>
        <time>2012-01-26T16:10:13Z</time>
      </trkpt>
      <trkpt lat="44.31936" lon="4.78434">
        <ele>195.765625</ele>
        <time>2012-01-26T16:10:19Z</time>
      </trkpt>
      <trkpt lat="44.31951" lon="4.78425">
        <ele>193.843018</ele>
        <time>2012-01-26T16:10:34Z</time>
      </trkpt>
      <trkpt lat="44.31964" lon="4.78425">
        <ele>192.401123</ele>
        <time>2012-01-26T16:10:46Z</time>
      </trkpt>
      <trkpt lat="44.3197" lon="4.78421">
        <ele>192.401123</ele>
        <time>2012-01-26T16:10:52Z</time>
      </trkpt>
      <trkpt lat="44.31972" lon="4.7842">
        <ele>191.920288</ele>
        <time>2012-01-26T16:10:54Z</time>
      </trkpt>
      <trkpt lat="44.31978" lon="4.78418">
        <ele>191.439575</ele>
        <time>2012-01-26T16:11:03Z</time>
      </trkpt>
      <trkpt lat="44.31986" lon="4.78414">
        <ele>190.478394</ele>
        <time>2012-01-26T16:11:13Z</time>
      </trkpt>
      <trkpt lat="44.31998" lon="4.78407">
        <ele>189.516968</ele>
        <time>2012-01-26T16:11:27Z</time>
      </trkpt>
      <trkpt lat="44.31998" lon="4.78407">
        <ele>189.516968</ele>
        <time>2012-01-26T16:11:28Z</time>
      </trkpt>
      <trkpt lat="44.32001" lon="4.78407">
        <ele>189.036377</ele>
        <time>2012-01-26T16:11:30Z</time>
      </trkpt>
      <trkpt lat="44.32006" lon="4.78405">
        <ele>189.036377</ele>
        <time>2012-01-26T16:11:35Z</time>
      </trkpt>
      <trkpt lat="44.32008" lon="4.78403">
        <ele>189.036377</ele>
        <time>2012-01-26T16:11:37Z</time>
      </trkpt>
      <trkpt lat="44.3202" lon="4.78395">
        <ele>189.516968</ele>
        <time>2012-01-26T16:11:52Z</time>
      </trkpt>
      <trkpt lat="44.32023" lon="4.78393">
        <ele>189.036377</ele>
        <time>2012-01-26T16:11:57Z</time>
      </trkpt>
      <trkpt lat="44.32028" lon="4.78396">
        <ele>188.555786</ele>
        <time>2012-01-26T16:12:03Z</time>
      </trkpt>
      <trkpt lat="44.32039" lon="4.784">
        <ele>188.075073</ele>
        <time>2012-01-26T16:12:16Z</time>
      </trkpt>
      <trkpt lat="44.32047" lon="4.78414">
        <ele>185.671753</ele>
        <time>2012-01-26T16:12:34Z</time>
      </trkpt>
      <trkpt lat="44.32059" lon="4.78423">
        <ele>183.749023</ele>
        <time>2012-01-26T16:12:50Z</time>
      </trkpt>
      <trkpt lat="44.32069" lon="4.78425">
        <ele>182.787842</ele>
        <time>2012-01-26T16:13:05Z</time>
      </trkpt>
      <trkpt lat="44.32068" lon="4.78433">
        <ele>181.826416</ele>
        <time>2012-01-26T16:13:10Z</time>
      </trkpt>
      <trkpt lat="44.32065" lon="4.78443">
        <ele>180.384521</ele>
        <time>2012-01-26T16:13:20Z</time>
      </trkpt>
      <trkpt lat="44.32057" lon="4.78439">
        <ele>180.384521</ele>
        <time>2012-01-26T16:13:38Z</time>
      </trkpt>
      <trkpt lat="44.32048" lon="4.78437">
        <ele>181.345825</ele>
        <time>2012-01-26T16:13:49Z</time>
      </trkpt>
      <trkpt lat="44.32042" lon="4.78438">
        <ele>182.307129</ele>
        <time>2012-01-26T16:13:58Z</time>
      </trkpt>
      <trkpt lat="44.32034" lon="4.78436">
        <ele>181.345825</ele>
        <time>2012-01-26T16:14:09Z</time>
      </trkpt>
      <trkpt lat="44.32021" lon="4.78432">
        <ele>183.268433</ele>
        <time>2012-01-26T16:14:26Z</time>
      </trkpt>
      <trkpt lat="44.32011" lon="4.78436">
        <ele>183.268433</ele>
        <time>2012-01-26T16:14:37Z</time>
      </trkpt>
      <trkpt lat="44.31996" lon="4.78453">
        <ele>183.749023</ele>
        <time>2012-01-26T16:14:56Z</time>
      </trkpt>
      <trkpt lat="44.3199" lon="4.78462">
        <ele>183.268433</ele>
        <time>2012-01-26T16:15:07Z</time>
      </trkpt>
      <trkpt lat="44.31977" lon="4.78476">
        <ele>182.787842</ele>
        <time>2012-01-26T16:15:20Z</time>
      </trkpt>
      <trkpt lat="44.31969" lon="4.78484">
        <ele>183.749023</ele>
        <time>2012-01-26T16:15:27Z</time>
      </trkpt>
      <trkpt lat="44.31964" lon="4.78498">
        <ele>183.268433</ele>
        <time>2012-01-26T16:15:39Z</time>
      </trkpt>
      <trkpt lat="44.3196" lon="4.78503">
        <ele>183.268433</ele>
        <time>2012-01-26T16:15:43Z</time>
      </trkpt>
      <trkpt lat="44.31945" lon="4.78514">
        <ele>182.307129</ele>
        <time>2012-01-26T16:15:55Z</time>
      </trkpt>
      <trkpt lat="44.31936" lon="4.78526">
        <ele>181.826416</ele>
        <time>2012-01-26T16:16:11Z</time>
      </trkpt>
      <trkpt lat="44.31931" lon="4.78532">
        <ele>181.826416</ele>
        <time>2012-01-26T16:16:16Z</time>
      </trkpt>
      <trkpt lat="44.31921" lon="4.78541">
        <ele>180.865234</ele>
        <time>2012-01-26T16:16:26Z</time>
      </trkpt>
      <trkpt lat="44.31909" lon="4.78546">
        <ele>180.384521</ele>
        <time>2012-01-26T16:16:37Z</time>
      </trkpt>
      <trkpt lat="44.31904" lon="4.78549">
        <ele>180.865234</ele>
        <time>2012-01-26T16:16:41Z</time>
      </trkpt>
      <trkpt lat="44.31902" lon="4.78551">
        <ele>180.384521</ele>
        <time>2012-01-26T16:16:44Z</time>
      </trkpt>
      <trkpt lat="44.31893" lon="4.78555">
        <ele>179.423218</ele>
        <time>2012-01-26T16:17:02Z</time>
      </trkpt>
      <trkpt lat="44.3189" lon="4.78559">
        <ele>179.423218</ele>
        <time>2012-01-26T16:17:19Z</time>
      </trkpt>
      <trkpt lat="44.31884" lon="4.78561">
        <ele>178.942627</ele>
        <time>2012-01-26T16:17:54Z</time>
      </trkpt>
      <trkpt lat="44.31874" lon="4.78564">
        <ele>178.461914</ele>
        <time>2012-01-26T16:18:04Z</time>
      </trkpt>
      <trkpt lat="44.31854" lon="4.78566">
        <ele>178.461914</ele>
        <time>2012-01-26T16:18:21Z</time>
      </trkpt>
      <trkpt lat="44.31845" lon="4.78575">
        <ele>177.02002</ele>
        <time>2012-01-26T16:18:33Z</time>
      </trkpt>
      <trkpt lat="44.31837" lon="4.78583">
        <ele>177.02002</ele>
        <time>2012-01-26T16:18:43Z</time>
      </trkpt>
      <trkpt lat="44.31832" lon="4.78597">
        <ele>175.577881</ele>
        <time>2012-01-26T16:18:57Z</time>
      </trkpt>
      <trkpt lat="44.31826" lon="4.78602">
        <ele>175.09729</ele>
        <time>2012-01-26T16:19:09Z</time>
      </trkpt>
      <trkpt lat="44.31824" lon="4.78604">
        <ele>173.655273</ele>
        <time>2012-01-26T16:19:16Z</time>
      </trkpt>
      <trkpt lat="44.31823" lon="4.78613">
        <ele>174.616577</ele>
        <time>2012-01-26T16:19:24Z</time>
      </trkpt>
      <trkpt lat="44.31818" lon="4.78615">
        <ele>173.655273</ele>
        <time>2012-01-26T16:19:40Z</time>
      </trkpt>
      <trkpt lat="44.31819" lon="4.78615">
        <ele>173.174683</ele>
        <time>2012-01-26T16:20:00Z</time>
      </trkpt>
      <trkpt lat="44.31818" lon="4.78616">
        <ele>171.732666</ele>
        <time>2012-01-26T16:32:38Z</time>
      </trkpt>
      <trkpt lat="44.31815" lon="4.78616">
        <ele>170.771362</ele>
        <time>2012-01-26T16:32:51Z</time>
      </trkpt>
      <trkpt lat="44.31815" lon="4.78616">
        <ele>170.771362</ele>
        <time>2012-01-26T16:32:53Z</time>
      </trkpt>
      <trkpt lat="44.31811" lon="4.78622">
        <ele>169.810059</ele>
        <time>2012-01-26T16:33:00Z</time>
      </trkpt>
      <trkpt lat="44.31813" lon="4.78633">
        <ele>168.848755</ele>
        <time>2012-01-26T16:33:09Z</time>
      </trkpt>
      <trkpt lat="44.31809" lon="4.78646">
        <ele>167.887329</ele>
        <time>2012-01-26T16:33:21Z</time>
      </trkpt>
      <trkpt lat="44.31807" lon="4.78649">
        <ele>166.926025</ele>
        <time>2012-01-26T16:33:26Z</time>
      </trkpt>
      <trkpt lat="44.31804" lon="4.78658">
        <ele>165.964722</ele>
        <time>2012-01-26T16:33:34Z</time>
      </trkpt>
      <trkpt lat="44.31797" lon="4.78659">
        <ele>164.522705</ele>
        <time>2012-01-26T16:33:46Z</time>
      </trkpt>
      <trkpt lat="44.31781" lon="4.78668">
        <ele>163.080811</ele>
        <time>2012-01-26T16:33:59Z</time>
      </trkpt>
      <trkpt lat="44.31772" lon="4.78669">
        <ele>162.600098</ele>
        <time>2012-01-26T16:34:07Z</time>
      </trkpt>
      <trkpt lat="44.31769" lon="4.78669">
        <ele>162.119507</ele>
        <time>2012-01-26T16:34:10Z</time>
      </trkpt>
      <trkpt lat="44.31768" lon="4.78667">
        <ele>162.119507</ele>
        <time>2012-01-26T16:34:12Z</time>
      </trkpt>
      <trkpt lat="44.31752" lon="4.78669">
        <ele>160.67749</ele>
        <time>2012-01-26T16:34:27Z</time>
      </trkpt>
      <trkpt lat="44.31751" lon="4.7866">
        <ele>160.196899</ele>
        <time>2012-01-26T16:34:38Z</time>
      </trkpt>
      <trkpt lat="44.31753" lon="4.78657">
        <ele>159.235474</ele>
        <time>2012-01-26T16:34:45Z</time>
      </trkpt>
      <trkpt lat="44.31755" lon="4.78644">
        <ele>158.27417</ele>
        <time>2012-01-26T16:34:52Z</time>
      </trkpt>
      <trkpt lat="44.31752" lon="4.78639">
        <ele>157.312866</ele>
        <time>2012-01-26T16:35:00Z</time>
      </trkpt>
      <trkpt lat="44.31748" lon="4.78626">
        <ele>155.390259</ele>
        <time>2012-01-26T16:35:12Z</time>
      </trkpt>
      <trkpt lat="44.31747" lon="4.78626">
        <ele>155.390259</ele>
        <time>2012-01-26T16:35:13Z</time>
      </trkpt>
      <trkpt lat="44.31739" lon="4.78632">
        <ele>154.428955</ele>
        <time>2012-01-26T16:35:24Z</time>
      </trkpt>
      <trkpt lat="44.31738" lon="4.78631">
        <ele>153.467651</ele>
        <time>2012-01-26T16:35:28Z</time>
      </trkpt>
      <trkpt lat="44.31732" lon="4.78627">
        <ele>152.025757</ele>
        <time>2012-01-26T16:35:37Z</time>
      </trkpt>
      <trkpt lat="44.3173" lon="4.78627">
        <ele>151.064209</ele>
        <time>2012-01-26T16:35:42Z</time>
      </trkpt>
      <trkpt lat="44.31719" lon="4.78635">
        <ele>150.103027</ele>
        <time>2012-01-26T16:35:57Z</time>
      </trkpt>
      <trkpt lat="44.31714" lon="4.78635">
        <ele>149.141602</ele>
        <time>2012-01-26T16:36:07Z</time>
      </trkpt>
      <trkpt lat="44.31712" lon="4.78634">
        <ele>148.661011</ele>
        <time>2012-01-26T16:36:24Z</time>
      </trkpt>
      <trkpt lat="44.31709" lon="4.78632">
        <ele>147.699707</ele>
        <time>2012-01-26T16:36:27Z</time>
      </trkpt>
      <trkpt lat="44.31707" lon="4.78632">
        <ele>147.218994</ele>
        <time>2012-01-26T16:36:29Z</time>
      </trkpt>
      <trkpt lat="44.31703" lon="4.78627">
        <ele>147.218994</ele>
        <time>2012-01-26T16:36:36Z</time>
      </trkpt>
      <trkpt lat="44.31709" lon="4.78616">
        <ele>150.583618</ele>
        <time>2012-01-26T16:36:49Z</time>
      </trkpt>
      <trkpt lat="44.31714" lon="4.78604">
        <ele>151.544922</ele>
        <time>2012-01-26T16:37:02Z</time>
      </trkpt>
      <trkpt lat="44.31717" lon="4.78597">
        <ele>149.622314</ele>
        <time>2012-01-26T16:37:15Z</time>
      </trkpt>
      <trkpt lat="44.31714" lon="4.78591">
        <ele>147.699707</ele>
        <time>2012-01-26T16:37:28Z</time>
      </trkpt>
      <trkpt lat="44.31712" lon="4.78582">
        <ele>145.296387</ele>
        <time>2012-01-26T16:37:40Z</time>
      </trkpt>
      <trkpt lat="44.31711" lon="4.78572">
        <ele>143.373657</ele>
        <time>2012-01-26T16:37:47Z</time>
      </trkpt>
      <trkpt lat="44.31711" lon="4.78571">
        <ele>142.412476</ele>
        <time>2012-01-26T16:38:00Z</time>
      </trkpt>
      <trkpt lat="44.31709" lon="4.78557">
        <ele>140.489868</ele>
        <time>2012-01-26T16:38:09Z</time>
      </trkpt>
      <trkpt lat="44.3171" lon="4.78553">
        <ele>140.009155</ele>
        <time>2012-01-26T16:38:13Z</time>
      </trkpt>
      <trkpt lat="44.31711" lon="4.78551">
        <ele>140.970459</ele>
        <time>2012-01-26T16:38:15Z</time>
      </trkpt>
      <trkpt lat="44.31713" lon="4.78544">
        <ele>140.009155</ele>
        <time>2012-01-26T16:38:20Z</time>
      </trkpt>
      <trkpt lat="44.31703" lon="4.78538">
        <ele>137.605835</ele>
        <time>2012-01-26T16:38:36Z</time>
      </trkpt>
      <trkpt lat="44.31698" lon="4.78533">
        <ele>136.644653</ele>
        <time>2012-01-26T16:38:46Z</time>
      </trkpt>
      <trkpt lat="44.31698" lon="4.78532">
        <ele>136.16394</ele>
        <time>2012-01-26T16:38:47Z</time>
      </trkpt>
      <trkpt lat="44.31698" lon="4.78529">
        <ele>136.16394</ele>
        <time>2012-01-26T16:38:56Z</time>
      </trkpt>
      <trkpt lat="44.31701" lon="4.78521">
        <ele>135.683105</ele>
        <time>2012-01-26T16:39:03Z</time>
      </trkpt>
      <trkpt lat="44.31701" lon="4.78516">
        <ele>136.16394</ele>
        <time>2012-01-26T16:39:19Z</time>
      </trkpt>
      <trkpt lat="44.31701" lon="4.78517">
        <ele>136.16394</ele>
        <time>2012-01-26T16:39:30Z</time>
      </trkpt>
      <trkpt lat="44.31701" lon="4.78516">
        <ele>136.16394</ele>
        <time>2012-01-26T16:39:31Z</time>
      </trkpt>
      <trkpt lat="44.31712" lon="4.78499">
        <ele>137.125244</ele>
        <time>2012-01-26T16:39:45Z</time>
      </trkpt>
      <trkpt lat="44.3172" lon="4.78492">
        <ele>138.086548</ele>
        <time>2012-01-26T16:39:59Z</time>
      </trkpt>
      <trkpt lat="44.31727" lon="4.7849">
        <ele>140.009155</ele>
        <time>2012-01-26T16:40:12Z</time>
      </trkpt>
      <trkpt lat="44.31736" lon="4.78485">
        <ele>142.412476</ele>
        <time>2012-01-26T16:40:30Z</time>
      </trkpt>
      <trkpt lat="44.31739" lon="4.78484">
        <ele>142.893066</ele>
        <time>2012-01-26T16:40:33Z</time>
      </trkpt>
      <trkpt lat="44.31743" lon="4.78485">
        <ele>144.335205</ele>
        <time>2012-01-26T16:40:38Z</time>
      </trkpt>
      <trkpt lat="44.31751" lon="4.7849">
        <ele>146.738403</ele>
        <time>2012-01-26T16:40:51Z</time>
      </trkpt>
      <trkpt lat="44.31754" lon="4.78485">
        <ele>148.18042</ele>
        <time>2012-01-26T16:41:00Z</time>
      </trkpt>
      <trkpt lat="44.3176" lon="4.78482">
        <ele>149.622314</ele>
        <time>2012-01-26T16:41:07Z</time>
      </trkpt>
      <trkpt lat="44.31765" lon="4.78484">
        <ele>151.064209</ele>
        <time>2012-01-26T16:41:15Z</time>
      </trkpt>
      <trkpt lat="44.31767" lon="4.7848">
        <ele>152.506348</ele>
        <time>2012-01-26T16:41:31Z</time>
      </trkpt>
      <trkpt lat="44.31767" lon="4.78479">
        <ele>152.506348</ele>
        <time>2012-01-26T16:42:04Z</time>
      </trkpt>
      <trkpt lat="44.31772" lon="4.78471">
        <ele>153.467651</ele>
        <time>2012-01-26T16:42:22Z</time>
      </trkpt>
      <trkpt lat="44.31775" lon="4.78453">
        <ele>152.986938</ele>
        <time>2012-01-26T16:42:34Z</time>
      </trkpt>
      <trkpt lat="44.31772" lon="4.78441">
        <ele>151.064209</ele>
        <time>2012-01-26T16:42:45Z</time>
      </trkpt>
      <trkpt lat="44.31771" lon="4.7844">
        <ele>151.064209</ele>
        <time>2012-01-26T16:42:46Z</time>
      </trkpt>
      <trkpt lat="44.3177" lon="4.78434">
        <ele>149.622314</ele>
        <time>2012-01-26T16:42:52Z</time>
      </trkpt>
      <trkpt lat="44.31764" lon="4.78426">
        <ele>148.18042</ele>
        <time>2012-01-26T16:43:03Z</time>
      </trkpt>
      <trkpt lat="44.31759" lon="4.78424">
        <ele>147.699707</ele>
        <time>2012-01-26T16:43:05Z</time>
      </trkpt>
      <trkpt lat="44.31749" lon="4.78419">
        <ele>148.661011</ele>
        <time>2012-01-26T16:43:15Z</time>
      </trkpt>
      <trkpt lat="44.3174" lon="4.78404">
        <ele>148.661011</ele>
        <time>2012-01-26T16:43:25Z</time>
      </trkpt>
      <trkpt lat="44.31734" lon="4.78394">
        <ele>146.738403</ele>
        <time>2012-01-26T16:43:36Z</time>
      </trkpt>
      <trkpt lat="44.31736" lon="4.78384">
        <ele>145.296387</ele>
        <time>2012-01-26T16:43:44Z</time>
      </trkpt>
      <trkpt lat="44.3174" lon="4.78376">
        <ele>145.296387</ele>
        <time>2012-01-26T16:43:52Z</time>
      </trkpt>
      <trkpt lat="44.31742" lon="4.78372">
        <ele>145.7771</ele>
        <time>2012-01-26T16:43:56Z</time>
      </trkpt>
      <trkpt lat="44.31745" lon="4.7836">
        <ele>143.85437</ele>
        <time>2012-01-26T16:44:09Z</time>
      </trkpt>
      <trkpt lat="44.31748" lon="4.78357">
        <ele>143.373657</ele>
        <time>2012-01-26T16:44:11Z</time>
      </trkpt>
      <trkpt lat="44.31753" lon="4.78342">
        <ele>141.931763</ele>
        <time>2012-01-26T16:44:17Z</time>
      </trkpt>
      <trkpt lat="44.31752" lon="4.78336">
        <ele>142.412476</ele>
        <time>2012-01-26T16:44:23Z</time>
      </trkpt>
      <trkpt lat="44.31753" lon="4.78331">
        <ele>142.893066</ele>
        <time>2012-01-26T16:44:25Z</time>
      </trkpt>
      <trkpt lat="44.31757" lon="4.78314">
        <ele>142.893066</ele>
        <time>2012-01-26T16:44:38Z</time>
      </trkpt>
      <trkpt lat="44.31756" lon="4.78303">
        <ele>141.931763</ele>
        <time>2012-01-26T16:44:43Z</time>
      </trkpt>
      <trkpt lat="44.3175" lon="4.78294">
        <ele>140.489868</ele>
        <time>2012-01-26T16:44:53Z</time>
      </trkpt>
      <trkpt lat="44.31745" lon="4.78284">
        <ele>141.45105</ele>
        <time>2012-01-26T16:45:01Z</time>
      </trkpt>
      <trkpt lat="44.31738" lon="4.78283">
        <ele>142.893066</ele>
        <time>2012-01-26T16:45:09Z</time>
      </trkpt>
      <trkpt lat="44.31722" lon="4.78286">
        <ele>143.373657</ele>
        <time>2012-01-26T16:45:22Z</time>
      </trkpt>
      <trkpt lat="44.3172" lon="4.78289">
        <ele>143.85437</ele>
        <time>2012-01-26T16:45:24Z</time>
      </trkpt>
      <trkpt lat="44.31711" lon="4.78291">
        <ele>142.893066</ele>
        <time>2012-01-26T16:45:34Z</time>
      </trkpt>
      <trkpt lat="44.31695" lon="4.78294">
        <ele>141.931763</ele>
        <time>2012-01-26T16:45:50Z</time>
      </trkpt>
      <trkpt lat="44.31684" lon="4.78298">
        <ele>141.931763</ele>
        <time>2012-01-26T16:46:01Z</time>
      </trkpt>
      <trkpt lat="44.31681" lon="4.783">
        <ele>141.931763</ele>
        <time>2012-01-26T16:46:06Z</time>
      </trkpt>
      <trkpt lat="44.3168" lon="4.78299">
        <ele>142.893066</ele>
        <time>2012-01-26T16:46:09Z</time>
      </trkpt>
      <trkpt lat="44.31677" lon="4.78298">
        <ele>143.373657</ele>
        <time>2012-01-26T16:46:12Z</time>
      </trkpt>
      <trkpt lat="44.31675" lon="4.78301">
        <ele>143.85437</ele>
        <time>2012-01-26T16:46:32Z</time>
      </trkpt>
      <trkpt lat="44.31675" lon="4.78299">
        <ele>143.85437</ele>
        <time>2012-01-26T16:46:52Z</time>
      </trkpt>
      <trkpt lat="44.31674" lon="4.78299">
        <ele>143.85437</ele>
        <time>2012-01-26T16:46:56Z</time>
      </trkpt>
      <trkpt lat="44.31666" lon="4.78295">
        <ele>144.815796</ele>
        <time>2012-01-26T16:47:05Z</time>
      </trkpt>
      <trkpt lat="44.31657" lon="4.78288">
        <ele>146.738403</ele>
        <time>2012-01-26T16:47:19Z</time>
      </trkpt>
      <trkpt lat="44.31648" lon="4.78287">
        <ele>149.622314</ele>
        <time>2012-01-26T16:47:35Z</time>
      </trkpt>
      <trkpt lat="44.31644" lon="4.78281">
        <ele>151.064209</ele>
        <time>2012-01-26T16:47:47Z</time>
      </trkpt>
      <trkpt lat="44.3164" lon="4.78279">
        <ele>152.025757</ele>
        <time>2012-01-26T16:47:54Z</time>
      </trkpt>
      <trkpt lat="44.31633" lon="4.78276">
        <ele>152.506348</ele>
        <time>2012-01-26T16:48:04Z</time>
      </trkpt>
      <trkpt lat="44.31628" lon="4.78279">
        <ele>152.025757</ele>
        <time>2012-01-26T16:48:08Z</time>
      </trkpt>
      <trkpt lat="44.31624" lon="4.78282">
        <ele>151.544922</ele>
        <time>2012-01-26T16:48:14Z</time>
      </trkpt>
      <trkpt lat="44.31622" lon="4.78281">
        <ele>151.544922</ele>
        <time>2012-01-26T16:48:18Z</time>
      </trkpt>
      <trkpt lat="44.31621" lon="4.78279">
        <ele>151.544922</ele>
        <time>2012-01-26T16:48:20Z</time>
      </trkpt>
      <trkpt lat="44.31617" lon="4.78278">
        <ele>152.025757</ele>
        <time>2012-01-26T16:48:31Z</time>
      </trkpt>
      <trkpt lat="44.31615" lon="4.78276">
        <ele>152.025757</ele>
        <time>2012-01-26T16:48:38Z</time>
      </trkpt>
      <trkpt lat="44.31606" lon="4.78264">
        <ele>152.986938</ele>
        <time>2012-01-26T16:48:51Z</time>
      </trkpt>
      <trkpt lat="44.31603" lon="4.78256">
        <ele>153.948364</ele>
        <time>2012-01-26T16:49:07Z</time>
      </trkpt>
      <trkpt lat="44.31603" lon="4.78256">
        <ele>153.467651</ele>
        <time>2012-01-26T16:49:09Z</time>
      </trkpt>
      <trkpt lat="44.31595" lon="4.78252">
        <ele>153.948364</ele>
        <time>2012-01-26T16:49:15Z</time>
      </trkpt>
      <trkpt lat="44.3159" lon="4.78244">
        <ele>154.428955</ele>
        <time>2012-01-26T16:49:27Z</time>
      </trkpt>
      <trkpt lat="44.31581" lon="4.78233">
        <ele>154.909546</ele>
        <time>2012-01-26T16:49:39Z</time>
      </trkpt>
      <trkpt lat="44.31578" lon="4.78228">
        <ele>154.909546</ele>
        <time>2012-01-26T16:49:44Z</time>
      </trkpt>
      <trkpt lat="44.31574" lon="4.78217">
        <ele>155.390259</ele>
        <time>2012-01-26T16:49:55Z</time>
      </trkpt>
      <trkpt lat="44.31569" lon="4.78211">
        <ele>154.428955</ele>
        <time>2012-01-26T16:50:04Z</time>
      </trkpt>
      <trkpt lat="44.31566" lon="4.78207">
        <ele>154.909546</ele>
        <time>2012-01-26T16:50:07Z</time>
      </trkpt>
      <trkpt lat="44.31565" lon="4.78202">
        <ele>155.390259</ele>
        <time>2012-01-26T16:50:10Z</time>
      </trkpt>
      <trkpt lat="44.31562" lon="4.78196">
        <ele>154.909546</ele>
        <time>2012-01-26T16:50:15Z</time>
      </trkpt>
      <trkpt lat="44.31562" lon="4.78181">
        <ele>155.390259</ele>
        <time>2012-01-26T16:50:27Z</time>
      </trkpt>
      <trkpt lat="44.31559" lon="4.78163">
        <ele>154.909546</ele>
        <time>2012-01-26T16:50:42Z</time>
      </trkpt>
      <trkpt lat="44.31559" lon="4.7815">
        <ele>154.909546</ele>
        <time>2012-01-26T16:50:53Z</time>
      </trkpt>
      <trkpt lat="44.31557" lon="4.78147">
        <ele>154.909546</ele>
        <time>2012-01-26T16:50:56Z</time>
      </trkpt>
      <trkpt lat="44.31556" lon="4.78147">
        <ele>154.428955</ele>
        <time>2012-01-26T16:50:59Z</time>
      </trkpt>
      <trkpt lat="44.3155" lon="4.78134">
        <ele>152.986938</ele>
        <time>2012-01-26T16:51:11Z</time>
      </trkpt>
      <trkpt lat="44.31551" lon="4.78119">
        <ele>153.948364</ele>
        <time>2012-01-26T16:51:27Z</time>
      </trkpt>
      <trkpt lat="44.31553" lon="4.7811">
        <ele>154.428955</ele>
        <time>2012-01-26T16:51:33Z</time>
      </trkpt>
      <trkpt lat="44.31554" lon="4.78101">
        <ele>154.428955</ele>
        <time>2012-01-26T16:51:39Z</time>
      </trkpt>
      <trkpt lat="44.31555" lon="4.78093">
        <ele>153.467651</ele>
        <time>2012-01-26T16:51:50Z</time>
      </trkpt>
      <trkpt lat="44.31561" lon="4.78072">
        <ele>153.467651</ele>
        <time>2012-01-26T16:52:03Z</time>
      </trkpt>
      <trkpt lat="44.31561" lon="4.78067">
        <ele>152.506348</ele>
        <time>2012-01-26T16:52:06Z</time>
      </trkpt>
      <trkpt lat="44.31554" lon="4.78056">
        <ele>152.025757</ele>
        <time>2012-01-26T16:52:14Z</time>
      </trkpt>
      <trkpt lat="44.31554" lon="4.78049">
        <ele>151.544922</ele>
        <time>2012-01-26T16:52:18Z</time>
      </trkpt>
      <trkpt lat="44.31556" lon="4.78031">
        <ele>151.064209</ele>
        <time>2012-01-26T16:52:31Z</time>
      </trkpt>
      <trkpt lat="44.31554" lon="4.78022">
        <ele>150.583618</ele>
        <time>2012-01-26T16:52:40Z</time>
      </trkpt>
      <trkpt lat="44.31549" lon="4.78012">
        <ele>148.661011</ele>
        <time>2012-01-26T16:52:51Z</time>
      </trkpt>
      <trkpt lat="44.3155" lon="4.78011">
        <ele>148.661011</ele>
        <time>2012-01-26T16:52:52Z</time>
      </trkpt>
      <trkpt lat="44.31552" lon="4.78004">
        <ele>148.661011</ele>
        <time>2012-01-26T16:52:56Z</time>
      </trkpt>
      <trkpt lat="44.31559" lon="4.77993">
        <ele>149.622314</ele>
        <time>2012-01-26T16:53:11Z</time>
      </trkpt>
      <trkpt lat="44.31563" lon="4.77987">
        <ele>149.622314</ele>
        <time>2012-01-26T16:53:16Z</time>
      </trkpt>
      <trkpt lat="44.31572" lon="4.77973">
        <ele>150.103027</ele>
        <time>2012-01-26T16:53:29Z</time>
      </trkpt>
      <trkpt lat="44.31577" lon="4.77968">
        <ele>150.583618</ele>
        <time>2012-01-26T16:53:40Z</time>
      </trkpt>
      <trkpt lat="44.31578" lon="4.77959">
        <ele>152.025757</ele>
        <time>2012-01-26T16:54:00Z</time>
      </trkpt>
      <trkpt lat="44.31581" lon="4.77949">
        <ele>152.025757</ele>
        <time>2012-01-26T16:54:14Z</time>
      </trkpt>
      <trkpt lat="44.31583" lon="4.7793">
        <ele>153.467651</ele>
        <time>2012-01-26T16:54:31Z</time>
      </trkpt>
      <trkpt lat="44.31588" lon="4.7791">
        <ele>155.390259</ele>
        <time>2012-01-26T16:54:52Z</time>
      </trkpt>
      <trkpt lat="44.31589" lon="4.77904">
        <ele>155.870972</ele>
        <time>2012-01-26T16:54:58Z</time>
      </trkpt>
      <trkpt lat="44.3159" lon="4.77887">
        <ele>157.793579</ele>
        <time>2012-01-26T16:55:16Z</time>
      </trkpt>
      <trkpt lat="44.31592" lon="4.77883">
        <ele>158.27417</ele>
        <time>2012-01-26T16:55:22Z</time>
      </trkpt>
      <trkpt lat="44.31592" lon="4.77871">
        <ele>159.235474</ele>
        <time>2012-01-26T16:55:33Z</time>
      </trkpt>
      <trkpt lat="44.31592" lon="4.77859">
        <ele>161.158203</ele>
        <time>2012-01-26T16:55:47Z</time>
      </trkpt>
      <trkpt lat="44.31593" lon="4.77845">
        <ele>163.080811</ele>
        <time>2012-01-26T16:56:04Z</time>
      </trkpt>
      <trkpt lat="44.31593" lon="4.77831">
        <ele>164.042114</ele>
        <time>2012-01-26T16:56:21Z</time>
      </trkpt>
      <trkpt lat="44.31594" lon="4.77817">
        <ele>165.484131</ele>
        <time>2012-01-26T16:56:32Z</time>
      </trkpt>
      <trkpt lat="44.31595" lon="4.77814">
        <ele>165.484131</ele>
        <time>2012-01-26T16:56:34Z</time>
      </trkpt>
      <trkpt lat="44.31597" lon="4.77798">
        <ele>167.406738</ele>
        <time>2012-01-26T16:56:48Z</time>
      </trkpt>
      <trkpt lat="44.31594" lon="4.77784">
        <ele>168.368042</ele>
        <time>2012-01-26T16:57:03Z</time>
      </trkpt>
      <trkpt lat="44.31595" lon="4.77768">
        <ele>169.810059</ele>
        <time>2012-01-26T16:57:18Z</time>
      </trkpt>
      <trkpt lat="44.31596" lon="4.77763">
        <ele>170.771362</ele>
        <time>2012-01-26T16:57:26Z</time>
      </trkpt>
      <trkpt lat="44.31595" lon="4.77759">
        <ele>171.732666</ele>
        <time>2012-01-26T16:57:29Z</time>
      </trkpt>
      <trkpt lat="44.31594" lon="4.77747">
        <ele>173.655273</ele>
        <time>2012-01-26T16:57:40Z</time>
      </trkpt>
      <trkpt lat="44.31592" lon="4.77739">
        <ele>175.09729</ele>
        <time>2012-01-26T16:57:56Z</time>
      </trkpt>
      <trkpt lat="44.31588" lon="4.77736">
        <ele>176.058594</ele>
        <time>2012-01-26T16:58:07Z</time>
      </trkpt>
      <trkpt lat="44.31586" lon="4.77724">
        <ele>176.058594</ele>
        <time>2012-01-26T16:58:20Z</time>
      </trkpt>
      <trkpt lat="44.31586" lon="4.77722">
        <ele>175.577881</ele>
        <time>2012-01-26T16:58:36Z</time>
      </trkpt>
      <trkpt lat="44.31588" lon="4.77718">
        <ele>175.09729</ele>
        <time>2012-01-26T16:58:58Z</time>
      </trkpt>
      <trkpt lat="44.31585" lon="4.77718">
        <ele>176.058594</ele>
        <time>2012-01-26T16:59:15Z</time>
      </trkpt>
      <trkpt lat="44.31583" lon="4.77721">
        <ele>175.09729</ele>
        <time>2012-01-26T17:01:08Z</time>
      </trkpt>
      <trkpt lat="44.31576" lon="4.77709">
        <ele>173.174683</ele>
        <time>2012-01-26T17:01:54Z</time>
      </trkpt>
      <trkpt lat="44.31569" lon="4.77702">
        <ele>171.252075</ele>
        <time>2012-01-26T17:02:12Z</time>
      </trkpt>
      <trkpt lat="44.31563" lon="4.7769">
        <ele>172.213257</ele>
        <time>2012-01-26T17:02:30Z</time>
      </trkpt>
      <trkpt lat="44.31555" lon="4.77681">
        <ele>173.174683</ele>
        <time>2012-01-26T17:02:47Z</time>
      </trkpt>
      <trkpt lat="44.3155" lon="4.77677">
        <ele>171.252075</ele>
        <time>2012-01-26T17:03:15Z</time>
      </trkpt>
      <trkpt lat="44.31545" lon="4.77672">
        <ele>171.252075</ele>
        <time>2012-01-26T17:03:25Z</time>
      </trkpt>
      <trkpt lat="44.31545" lon="4.7767">
        <ele>171.252075</ele>
        <time>2012-01-26T17:03:30Z</time>
      </trkpt>
      <trkpt lat="44.31537" lon="4.77665">
        <ele>170.290649</ele>
        <time>2012-01-26T17:03:42Z</time>
      </trkpt>
      <trkpt lat="44.31529" lon="4.7766">
        <ele>168.368042</ele>
        <time>2012-01-26T17:03:58Z</time>
      </trkpt>
      <trkpt lat="44.3152" lon="4.77658">
        <ele>166.926025</ele>
        <time>2012-01-26T17:04:11Z</time>
      </trkpt>
      <trkpt lat="44.31516" lon="4.77655">
        <ele>165.964722</ele>
        <time>2012-01-26T17:04:18Z</time>
      </trkpt>
      <trkpt lat="44.31514" lon="4.77653">
        <ele>165.484131</ele>
        <time>2012-01-26T17:04:21Z</time>
      </trkpt>
      <trkpt lat="44.31509" lon="4.77645">
        <ele>165.003418</ele>
        <time>2012-01-26T17:04:29Z</time>
      </trkpt>
      <trkpt lat="44.31498" lon="4.77643">
        <ele>163.080811</ele>
        <time>2012-01-26T17:04:47Z</time>
      </trkpt>
      <trkpt lat="44.31494" lon="4.77639">
        <ele>162.119507</ele>
        <time>2012-01-26T17:04:59Z</time>
      </trkpt>
      <trkpt lat="44.31487" lon="4.77632">
        <ele>160.196899</ele>
        <time>2012-01-26T17:05:13Z</time>
      </trkpt>
      <trkpt lat="44.31484" lon="4.77631">
        <ele>159.716187</ele>
        <time>2012-01-26T17:05:18Z</time>
      </trkpt>
      <trkpt lat="44.31477" lon="4.77631">
        <ele>158.754761</ele>
        <time>2012-01-26T17:05:29Z</time>
      </trkpt>
      <trkpt lat="44.31469" lon="4.77628">
        <ele>157.312866</ele>
        <time>2012-01-26T17:05:42Z</time>
      </trkpt>
      <trkpt lat="44.31468" lon="4.77626">
        <ele>157.312866</ele>
        <time>2012-01-26T17:06:01Z</time>
      </trkpt>
      <trkpt lat="44.31464" lon="4.77624">
        <ele>155.870972</ele>
        <time>2012-01-26T17:06:20Z</time>
      </trkpt>
      <trkpt lat="44.31457" lon="4.77624">
        <ele>153.948364</ele>
        <time>2012-01-26T17:06:51Z</time>
      </trkpt>
      <trkpt lat="44.31454" lon="4.7762">
        <ele>151.544922</ele>
        <time>2012-01-26T17:07:16Z</time>
      </trkpt>
      <trkpt lat="44.31444" lon="4.77619">
        <ele>151.064209</ele>
        <time>2012-01-26T17:07:36Z</time>
      </trkpt>
      <trkpt lat="44.31442" lon="4.77612">
        <ele>152.506348</ele>
        <time>2012-01-26T17:07:51Z</time>
      </trkpt>
      <trkpt lat="44.31439" lon="4.77606">
        <ele>151.544922</ele>
        <time>2012-01-26T17:08:14Z</time>
      </trkpt>
      <trkpt lat="44.3144" lon="4.776">
        <ele>151.544922</ele>
        <time>2012-01-26T17:08:19Z</time>
      </trkpt>
      <trkpt lat="44.31437" lon="4.776">
        <ele>151.544922</ele>
        <time>2012-01-26T17:08:22Z</time>
      </trkpt>
      <trkpt lat="44.31431" lon="4.77592">
        <ele>152.506348</ele>
        <time>2012-01-26T17:08:32Z</time>
      </trkpt>
      <trkpt lat="44.31428" lon="4.77589">
        <ele>152.506348</ele>
        <time>2012-01-26T17:08:34Z</time>
      </trkpt>
      <trkpt lat="44.31422" lon="4.77582">
        <ele>152.506348</ele>
        <time>2012-01-26T17:08:41Z</time>
      </trkpt>
      <trkpt lat="44.3142" lon="4.7757">
        <ele>153.948364</ele>
        <time>2012-01-26T17:08:55Z</time>
      </trkpt>
      <trkpt lat="44.31416" lon="4.7756">
        <ele>154.428955</ele>
        <time>2012-01-26T17:09:02Z</time>
      </trkpt>
      <trkpt lat="44.31417" lon="4.77547">
        <ele>155.390259</ele>
        <time>2012-01-26T17:09:13Z</time>
      </trkpt>
      <trkpt lat="44.31413" lon="4.77525">
        <ele>156.351563</ele>
        <time>2012-01-26T17:09:32Z</time>
      </trkpt>
      <trkpt lat="44.31421" lon="4.77505">
        <ele>154.909546</ele>
        <time>2012-01-26T17:09:51Z</time>
      </trkpt>
      <trkpt lat="44.31425" lon="4.77496">
        <ele>155.390259</ele>
        <time>2012-01-26T17:10:02Z</time>
      </trkpt>
      <trkpt lat="44.31427" lon="4.77495">
        <ele>155.870972</ele>
        <time>2012-01-26T17:10:05Z</time>
      </trkpt>
      <trkpt lat="44.31428" lon="4.77492">
        <ele>156.351563</ele>
        <time>2012-01-26T17:10:08Z</time>
      </trkpt>
      <trkpt lat="44.31439" lon="4.77476">
        <ele>158.27417</ele>
        <time>2012-01-26T17:10:23Z</time>
      </trkpt>
      <trkpt lat="44.31442" lon="4.77473">
        <ele>159.235474</ele>
        <time>2012-01-26T17:10:31Z</time>
      </trkpt>
      <trkpt lat="44.31449" lon="4.77464">
        <ele>160.67749</ele>
        <time>2012-01-26T17:10:43Z</time>
      </trkpt>
      <trkpt lat="44.31454" lon="4.77456">
        <ele>160.67749</ele>
        <time>2012-01-26T17:10:54Z</time>
      </trkpt>
      <trkpt lat="44.31465" lon="4.77444">
        <ele>161.638916</ele>
        <time>2012-01-26T17:11:13Z</time>
      </trkpt>
      <trkpt lat="44.31475" lon="4.77442">
        <ele>162.600098</ele>
        <time>2012-01-26T17:11:25Z</time>
      </trkpt>
      <trkpt lat="44.31477" lon="4.77443">
        <ele>162.600098</ele>
        <time>2012-01-26T17:11:27Z</time>
      </trkpt>
      <trkpt lat="44.31492" lon="4.77433">
        <ele>163.561523</ele>
        <time>2012-01-26T17:11:43Z</time>
      </trkpt>
      <trkpt lat="44.31497" lon="4.77421">
        <ele>163.561523</ele>
        <time>2012-01-26T17:11:55Z</time>
      </trkpt>
      <trkpt lat="44.31498" lon="4.77408">
        <ele>163.561523</ele>
        <time>2012-01-26T17:11:59Z</time>
      </trkpt>
      <trkpt lat="44.31499" lon="4.77397">
        <ele>163.080811</ele>
        <time>2012-01-26T17:12:09Z</time>
      </trkpt>
      <trkpt lat="44.31499" lon="4.77393">
        <ele>162.600098</ele>
        <time>2012-01-26T17:12:11Z</time>
      </trkpt>
      <trkpt lat="44.31509" lon="4.77377">
        <ele>164.042114</ele>
        <time>2012-01-26T17:12:29Z</time>
      </trkpt>
      <trkpt lat="44.3151" lon="4.77372">
        <ele>164.522705</ele>
        <time>2012-01-26T17:12:48Z</time>
      </trkpt>
      <trkpt lat="44.31508" lon="4.77365">
        <ele>164.522705</ele>
        <time>2012-01-26T17:12:56Z</time>
      </trkpt>
      <trkpt lat="44.31507" lon="4.77363">
        <ele>164.042114</ele>
        <time>2012-01-26T17:12:58Z</time>
      </trkpt>
      <trkpt lat="44.315" lon="4.77359">
        <ele>164.042114</ele>
        <time>2012-01-26T17:13:03Z</time>
      </trkpt>
      <trkpt lat="44.31492" lon="4.77356">
        <ele>163.561523</ele>
        <time>2012-01-26T17:13:14Z</time>
      </trkpt>
      <trkpt lat="44.31492" lon="4.77354">
        <ele>164.042114</ele>
        <time>2012-01-26T17:13:28Z</time>
      </trkpt>
      <trkpt lat="44.31491" lon="4.77357">
        <ele>163.561523</ele>
        <time>2012-01-26T17:13:50Z</time>
      </trkpt>
      <trkpt lat="44.31488" lon="4.77366">
        <ele>160.196899</ele>
        <time>2012-01-26T17:14:29Z</time>
      </trkpt>
      <trkpt lat="44.31476" lon="4.77373">
        <ele>158.27417</ele>
        <time>2012-01-26T17:14:52Z</time>
      </trkpt>
      <trkpt lat="44.31461" lon="4.77374">
        <ele>157.312866</ele>
        <time>2012-01-26T17:15:11Z</time>
      </trkpt>
      <trkpt lat="44.31448" lon="4.77381">
        <ele>154.909546</ele>
        <time>2012-01-26T17:15:25Z</time>
      </trkpt>
      <trkpt lat="44.31445" lon="4.77385">
        <ele>154.909546</ele>
        <time>2012-01-26T17:15:27Z</time>
      </trkpt>
      <trkpt lat="44.31442" lon="4.77388">
        <ele>154.428955</ele>
        <time>2012-01-26T17:15:30Z</time>
      </trkpt>
      <trkpt lat="44.31435" lon="4.77382">
        <ele>152.986938</ele>
        <time>2012-01-26T17:15:52Z</time>
      </trkpt>
      <trkpt lat="44.31422" lon="4.77382">
        <ele>151.544922</ele>
        <time>2012-01-26T17:16:03Z</time>
      </trkpt>
      <trkpt lat="44.31415" lon="4.77385">
        <ele>151.064209</ele>
        <time>2012-01-26T17:16:07Z</time>
      </trkpt>
      <trkpt lat="44.31413" lon="4.77384">
        <ele>151.064209</ele>
        <time>2012-01-26T17:16:11Z</time>
      </trkpt>
      <trkpt lat="44.31401" lon="4.77387">
        <ele>150.583618</ele>
        <time>2012-01-26T17:16:23Z</time>
      </trkpt>
      <trkpt lat="44.3139" lon="4.77393">
        <ele>148.18042</ele>
        <time>2012-01-26T17:16:43Z</time>
      </trkpt>
      <trkpt lat="44.31392" lon="4.774">
        <ele>145.7771</ele>
        <time>2012-01-26T17:16:55Z</time>
      </trkpt>
      <trkpt lat="44.314" lon="4.77404">
        <ele>144.335205</ele>
        <time>2012-01-26T17:17:22Z</time>
      </trkpt>
      <trkpt lat="44.31407" lon="4.77413">
        <ele>143.373657</ele>
        <time>2012-01-26T17:17:44Z</time>
      </trkpt>
      <trkpt lat="44.31403" lon="4.77436">
        <ele>141.931763</ele>
        <time>2012-01-26T17:18:03Z</time>
      </trkpt>
      <trkpt lat="44.31395" lon="4.77449">
        <ele>141.45105</ele>
        <time>2012-01-26T17:18:16Z</time>
      </trkpt>
      <trkpt lat="44.31385" lon="4.77479">
        <ele>140.489868</ele>
        <time>2012-01-26T17:18:32Z</time>
      </trkpt>
      <trkpt lat="44.31383" lon="4.77482">
        <ele>140.489868</ele>
        <time>2012-01-26T17:18:34Z</time>
      </trkpt>
      <trkpt lat="44.31368" lon="4.77506">
        <ele>140.489868</ele>
        <time>2012-01-26T17:18:46Z</time>
      </trkpt>
      <trkpt lat="44.31359" lon="4.77517">
        <ele>140.970459</ele>
        <time>2012-01-26T17:18:57Z</time>
      </trkpt>
      <trkpt lat="44.31353" lon="4.77526">
        <ele>140.489868</ele>
        <time>2012-01-26T17:19:10Z</time>
      </trkpt>
      <trkpt lat="44.31331" lon="4.77536">
        <ele>138.567261</ele>
        <time>2012-01-26T17:19:30Z</time>
      </trkpt>
      <trkpt lat="44.31312" lon="4.77545">
        <ele>135.683105</ele>
        <time>2012-01-26T17:19:52Z</time>
      </trkpt>
      <trkpt lat="44.31292" lon="4.77555">
        <ele>132.318604</ele>
        <time>2012-01-26T17:20:16Z</time>
      </trkpt>
      <trkpt lat="44.31273" lon="4.77562">
        <ele>128.954102</ele>
        <time>2012-01-26T17:20:40Z</time>
      </trkpt>
      <trkpt lat="44.31261" lon="4.77566">
        <ele>127.511963</ele>
        <time>2012-01-26T17:20:55Z</time>
      </trkpt>
      <trkpt lat="44.31254" lon="4.77572">
        <ele>127.511963</ele>
        <time>2012-01-26T17:21:03Z</time>
      </trkpt>
      <trkpt lat="44.31237" lon="4.77586">
        <ele>126.550659</ele>
        <time>2012-01-26T17:21:17Z</time>
      </trkpt>
      <trkpt lat="44.31215" lon="4.77613">
        <ele>124.628052</ele>
        <time>2012-01-26T17:21:41Z</time>
      </trkpt>
      <trkpt lat="44.31207" lon="4.77599">
        <ele>122.224731</ele>
        <time>2012-01-26T17:22:01Z</time>
      </trkpt>
      <trkpt lat="44.31202" lon="4.77601">
        <ele>120.782837</ele>
        <time>2012-01-26T17:22:23Z</time>
      </trkpt>
      <trkpt lat="44.31204" lon="4.77595">
        <ele>121.26355</ele>
        <time>2012-01-26T17:22:32Z</time>
      </trkpt>
      <trkpt lat="44.31191" lon="4.77593">
        <ele>119.821411</ele>
        <time>2012-01-26T17:22:43Z</time>
      </trkpt>
      <trkpt lat="44.31181" lon="4.77597">
        <ele>118.379395</ele>
        <time>2012-01-26T17:22:58Z</time>
      </trkpt>
      <trkpt lat="44.31165" lon="4.77595">
        <ele>115.014893</ele>
        <time>2012-01-26T17:23:17Z</time>
      </trkpt>
      <trkpt lat="44.31145" lon="4.77591">
        <ele>112.611572</ele>
        <time>2012-01-26T17:23:35Z</time>
      </trkpt>
      <trkpt lat="44.31133" lon="4.77599">
        <ele>110.688843</ele>
        <time>2012-01-26T17:23:50Z</time>
      </trkpt>
      <trkpt lat="44.31127" lon="4.77601">
        <ele>109.246948</ele>
        <time>2012-01-26T17:23:57Z</time>
      </trkpt>
      <trkpt lat="44.31115" lon="4.77603">
        <ele>107.805054</ele>
        <time>2012-01-26T17:24:11Z</time>
      </trkpt>
      <trkpt lat="44.31097" lon="4.77608">
        <ele>104.921021</ele>
        <time>2012-01-26T17:24:32Z</time>
      </trkpt>
      <trkpt lat="44.3108" lon="4.77607">
        <ele>102.5177</ele>
        <time>2012-01-26T17:24:48Z</time>
      </trkpt>
      <trkpt lat="44.31077" lon="4.77608">
        <ele>102.037109</ele>
        <time>2012-01-26T17:25:04Z</time>
      </trkpt>
      <trkpt lat="44.31075" lon="4.77609">
        <ele>100.114502</ele>
        <time>2012-01-26T17:25:25Z</time>
      </trkpt>
      <trkpt lat="44.31057" lon="4.77615">
        <ele>98.191895</ele>
        <time>2012-01-26T17:25:37Z</time>
      </trkpt>
      <trkpt lat="44.31052" lon="4.77613">
        <ele>97.230469</ele>
        <time>2012-01-26T17:25:42Z</time>
      </trkpt>
      <trkpt lat="44.31051" lon="4.77609">
        <ele>96.749878</ele>
        <time>2012-01-26T17:25:47Z</time>
      </trkpt>
      <trkpt lat="44.3104" lon="4.77614">
        <ele>95.307739</ele>
        <time>2012-01-26T17:25:56Z</time>
      </trkpt>
      <trkpt lat="44.31036" lon="4.77616">
        <ele>94.346558</ele>
        <time>2012-01-26T17:26:02Z</time>
      </trkpt>
      <trkpt lat="44.31033" lon="4.77616">
        <ele>92.904541</ele>
        <time>2012-01-26T17:26:06Z</time>
      </trkpt>
      <trkpt lat="44.31021" lon="4.77611">
        <ele>90.02063</ele>
        <time>2012-01-26T17:26:20Z</time>
      </trkpt>
      <trkpt lat="44.31016" lon="4.77611">
        <ele>88.578735</ele>
        <time>2012-01-26T17:26:26Z</time>
      </trkpt>
      <trkpt lat="44.31009" lon="4.77615">
        <ele>86.175293</ele>
        <time>2012-01-26T17:26:38Z</time>
      </trkpt>
      <trkpt lat="44.31006" lon="4.77619">
        <ele>85.69458</ele>
        <time>2012-01-26T17:26:59Z</time>
      </trkpt>
      <trkpt lat="44.30997" lon="4.77612">
        <ele>85.213989</ele>
        <time>2012-01-26T17:28:05Z</time>
      </trkpt>
      <trkpt lat="44.30986" lon="4.77602">
        <ele>83.771973</ele>
        <time>2012-01-26T17:28:23Z</time>
      </trkpt>
      <trkpt lat="44.30985" lon="4.776">
        <ele>83.771973</ele>
        <time>2012-01-26T17:28:24Z</time>
      </trkpt>
      <trkpt lat="44.30983" lon="4.77595">
        <ele>82.810791</ele>
        <time>2012-01-26T17:28:27Z</time>
      </trkpt>
      <trkpt lat="44.30979" lon="4.77592">
        <ele>82.330078</ele>
        <time>2012-01-26T17:28:33Z</time>
      </trkpt>
      <trkpt lat="44.30976" lon="4.77591">
        <ele>81.849365</ele>
        <time>2012-01-26T17:28:46Z</time>
      </trkpt>
      <trkpt lat="44.30973" lon="4.77589">
        <ele>81.368774</ele>
        <time>2012-01-26T17:29:20Z</time>
      </trkpt>
      <trkpt lat="44.30965" lon="4.77587">
        <ele>80.407471</ele>
        <time>2012-01-26T17:29:33Z</time>
      </trkpt>
      <trkpt lat="44.30961" lon="4.77589">
        <ele>80.407471</ele>
        <time>2012-01-26T17:29:51Z</time>
      </trkpt>
      <trkpt lat="44.3095" lon="4.77585">
        <ele>78.484741</ele>
        <time>2012-01-26T17:30:09Z</time>
      </trkpt>
      <trkpt lat="44.30936" lon="4.77587">
        <ele>77.523438</ele>
        <time>2012-01-26T17:30:21Z</time>
      </trkpt>
      <trkpt lat="44.30916" lon="4.77585">
        <ele>76.562134</ele>
        <time>2012-01-26T17:30:41Z</time>
      </trkpt>
      <trkpt lat="44.309" lon="4.77596">
        <ele>76.081421</ele>
        <time>2012-01-26T17:30:57Z</time>
      </trkpt>
      <trkpt lat="44.30886" lon="4.77603">
        <ele>75.60083</ele>
        <time>2012-01-26T17:31:09Z</time>
      </trkpt>
      <trkpt lat="44.30882" lon="4.77604">
        <ele>75.120239</ele>
        <time>2012-01-26T17:31:16Z</time>
      </trkpt>
      <trkpt lat="44.30876" lon="4.77605">
        <ele>74.639526</ele>
        <time>2012-01-26T17:31:24Z</time>
      </trkpt>
      <trkpt lat="44.30865" lon="4.77607">
        <ele>74.639526</ele>
        <time>2012-01-26T17:31:38Z</time>
      </trkpt>
      <trkpt lat="44.30849" lon="4.77611">
        <ele>72.716919</ele>
        <time>2012-01-26T17:31:53Z</time>
      </trkpt>
      <trkpt lat="44.30835" lon="4.77612">
        <ele>72.236206</ele>
        <time>2012-01-26T17:32:07Z</time>
      </trkpt>
      <trkpt lat="44.30829" lon="4.77608">
        <ele>72.236206</ele>
        <time>2012-01-26T17:32:17Z</time>
      </trkpt>
      <trkpt lat="44.30827" lon="4.77608">
        <ele>71.274902</ele>
        <time>2012-01-26T17:32:25Z</time>
      </trkpt>
      <trkpt lat="44.30822" lon="4.77609">
        <ele>71.274902</ele>
        <time>2012-01-26T17:32:30Z</time>
      </trkpt>
      <trkpt lat="44.30816" lon="4.77614">
        <ele>70.794189</ele>
        <time>2012-01-26T17:32:41Z</time>
      </trkpt>
      <trkpt lat="44.30806" lon="4.77616">
        <ele>70.313477</ele>
        <time>2012-01-26T17:32:52Z</time>
      </trkpt>
      <trkpt lat="44.30804" lon="4.77615">
        <ele>70.313477</ele>
        <time>2012-01-26T17:32:54Z</time>
      </trkpt>
      <trkpt lat="44.30792" lon="4.77621">
        <ele>69.352295</ele>
        <time>2012-01-26T17:33:05Z</time>
      </trkpt>
      <trkpt lat="44.30784" lon="4.77621">
        <ele>69.352295</ele>
        <time>2012-01-26T17:33:16Z</time>
      </trkpt>
      <trkpt lat="44.30776" lon="4.77618">
        <ele>68.871582</ele>
        <time>2012-01-26T17:33:27Z</time>
      </trkpt>
      <trkpt lat="44.3077" lon="4.77624">
        <ele>68.390869</ele>
        <time>2012-01-26T17:33:43Z</time>
      </trkpt>
      <trkpt lat="44.30768" lon="4.77637">
        <ele>67.910278</ele>
        <time>2012-01-26T17:33:58Z</time>
      </trkpt>
      <trkpt lat="44.30768" lon="4.77646">
        <ele>67.910278</ele>
        <time>2012-01-26T17:34:02Z</time>
      </trkpt>
      <trkpt lat="44.30769" lon="4.77651">
        <ele>67.910278</ele>
        <time>2012-01-26T17:34:04Z</time>
      </trkpt>
      <trkpt lat="44.30768" lon="4.77655">
        <ele>67.910278</ele>
        <time>2012-01-26T17:34:07Z</time>
      </trkpt>
      <trkpt lat="44.30768" lon="4.77658">
        <ele>67.910278</ele>
        <time>2012-01-26T17:34:09Z</time>
      </trkpt>
      <trkpt lat="44.30769" lon="4.77661">
        <ele>67.910278</ele>
        <time>2012-01-26T17:34:11Z</time>
      </trkpt>
      <trkpt lat="44.30767" lon="4.77672">
        <ele>67.910278</ele>
        <time>2012-01-26T17:34:19Z</time>
      </trkpt>
      <trkpt lat="44.30766" lon="4.77682">
        <ele>67.910278</ele>
        <time>2012-01-26T17:34:27Z</time>
      </trkpt>
      <trkpt lat="44.30767" lon="4.77686">
        <ele>68.390869</ele>
        <time>2012-01-26T17:34:30Z</time>
      </trkpt>
      <trkpt lat="44.30771" lon="4.77692">
        <ele>67.910278</ele>
        <time>2012-01-26T17:34:36Z</time>
      </trkpt>
      <trkpt lat="44.30772" lon="4.77699">
        <ele>67.910278</ele>
        <time>2012-01-26T17:34:41Z</time>
      </trkpt>
      <trkpt lat="44.30771" lon="4.77704">
        <ele>67.910278</ele>
        <time>2012-01-26T17:34:44Z</time>
      </trkpt>
      <trkpt lat="44.30769" lon="4.77711">
        <ele>67.910278</ele>
        <time>2012-01-26T17:34:50Z</time>
      </trkpt>
      <trkpt lat="44.30768" lon="4.77722">
        <ele>67.910278</ele>
        <time>2012-01-26T17:34:56Z</time>
      </trkpt>
      <trkpt lat="44.30768" lon="4.77729">
        <ele>67.910278</ele>
        <time>2012-01-26T17:35:00Z</time>
      </trkpt>
      <trkpt lat="44.30776" lon="4.77746">
        <ele>67.910278</ele>
        <time>2012-01-26T17:35:12Z</time>
      </trkpt>
      <trkpt lat="44.30777" lon="4.7775">
        <ele>67.910278</ele>
        <time>2012-01-26T17:35:14Z</time>
      </trkpt>
      <trkpt lat="44.30778" lon="4.77758">
        <ele>67.910278</ele>
        <time>2012-01-26T17:35:19Z</time>
      </trkpt>
      <trkpt lat="44.30783" lon="4.77774">
        <ele>67.910278</ele>
        <time>2012-01-26T17:35:33Z</time>
      </trkpt>
      <trkpt lat="44.30785" lon="4.77779">
        <ele>67.429688</ele>
        <time>2012-01-26T17:35:37Z</time>
      </trkpt>
      <trkpt lat="44.30788" lon="4.77786">
        <ele>67.910278</ele>
        <time>2012-01-26T17:35:42Z</time>
      </trkpt>
      <trkpt lat="44.30789" lon="4.7779">
        <ele>67.910278</ele>
        <time>2012-01-26T17:35:45Z</time>
      </trkpt>
      <trkpt lat="44.30793" lon="4.77797">
        <ele>67.910278</ele>
        <time>2012-01-26T17:35:50Z</time>
      </trkpt>
      <trkpt lat="44.30796" lon="4.77799">
        <ele>67.910278</ele>
        <time>2012-01-26T17:35:54Z</time>
      </trkpt>
      <trkpt lat="44.30804" lon="4.77801">
        <ele>68.390869</ele>
        <time>2012-01-26T17:36:05Z</time>
      </trkpt>
      <trkpt lat="44.30812" lon="4.77798">
        <ele>69.352295</ele>
        <time>2012-01-26T17:36:11Z</time>
      </trkpt>
      <trkpt lat="44.30818" lon="4.77795">
        <ele>69.352295</ele>
        <time>2012-01-26T17:36:20Z</time>
      </trkpt>
      <trkpt lat="44.30825" lon="4.77793">
        <ele>69.832886</ele>
        <time>2012-01-26T17:36:27Z</time>
      </trkpt>
      <trkpt lat="44.30835" lon="4.77787">
        <ele>69.832886</ele>
        <time>2012-01-26T17:36:39Z</time>
      </trkpt>
      <trkpt lat="44.30845" lon="4.77782">
        <ele>69.832886</ele>
        <time>2012-01-26T17:36:50Z</time>
      </trkpt>
      <trkpt lat="44.30849" lon="4.7778">
        <ele>70.313477</ele>
        <time>2012-01-26T17:36:54Z</time>
      </trkpt>
      <trkpt lat="44.30863" lon="4.77791">
        <ele>70.794189</ele>
        <time>2012-01-26T17:37:11Z</time>
      </trkpt>
      <trkpt lat="44.30861" lon="4.77787">
        <ele>70.313477</ele>
        <time>2012-01-26T17:37:32Z</time>
      </trkpt>
      <trkpt lat="44.30864" lon="4.77795">
        <ele>70.313477</ele>
        <time>2012-01-26T17:37:47Z</time>
      </trkpt>
      <trkpt lat="44.30862" lon="4.77804">
        <ele>70.313477</ele>
        <time>2012-01-26T17:38:01Z</time>
      </trkpt>
      <trkpt lat="44.30861" lon="4.77807">
        <ele>70.313477</ele>
        <time>2012-01-26T17:38:20Z</time>
      </trkpt>
      <trkpt lat="44.3086" lon="4.77808">
        <ele>70.794189</ele>
        <time>2012-01-26T17:38:48Z</time>
      </trkpt>
      <trkpt lat="44.30863" lon="4.77806">
        <ele>70.794189</ele>
        <time>2012-01-26T17:39:09Z</time>
      </trkpt>
      <trkpt lat="44.30863" lon="4.77805">
        <ele>70.313477</ele>
        <time>2012-01-26T17:39:24Z</time>
      </trkpt>
      <trkpt lat="44.30863" lon="4.77805">
        <ele>69.832886</ele>
        <time>2012-01-26T17:39:39Z</time>
      </trkpt>
    </trkseg>
  </trk>
</gpx>